Observation data for Lake McClellan 2NW on 04/25/2019      Previous  Date  Next       Current Mesonet Observations  Soil Data  Daily Summary Page  Observations in Plain Language
KMC5 250500Z 19006KT 12/10 A2988 RMK A01 T01240095  RH  082%=      5-min Rain = 0
KMC5 250501Z 18008KT 12/10 A2988 RMK A01 T01240095  RH  082%=      5-min Rain = 0
KMC5 250502Z 18009KT 13/10 A2988 RMK A01 T01250096  RH  083%=      5-min Rain = 0
KMC5 250503Z 19008KT 13/10 A2988 RMK A01 T01260097  RH  082%=      5-min Rain = 0
KMC5 250504Z 19008KT 13/10 A2988 RMK A01 T01270097  RH  082%=      5-min Rain = 0
KMC5 250505Z 18008KT 13/10 A2988 RMK A01 T01270097  RH  082%=      5-min Rain = 0
KMC5 250506Z 19008KT 13/10 A2988 RMK A01 T01270097  RH  082%=      5-min Rain = 0
KMC5 250507Z 19007KT 13/10 A2988 RMK A01 T01270096  RH  082%=      5-min Rain = 0
KMC5 250508Z 19007KT 13/10 A2988 RMK A01 T01270096  RH  082%=      5-min Rain = 0
KMC5 250509Z 19008KT 13/10 A2988 RMK A01 T01260096  RH  082%=      5-min Rain = 0
KMC5 250510Z 19008KT 13/10 A2988 RMK A01 T01250096  RH  082%=      5-min Rain = 0
KMC5 250511Z 19008KT 13/10 A2988 RMK A01 T01250096  RH  082%=      5-min Rain = 0
KMC5 250512Z 20007KT 13/10 A2988 RMK A01 T01250096  RH  082%=      5-min Rain = 0
KMC5 250513Z 20007KT 13/10 A2988 RMK A01 T01260097  RH  082%=      5-min Rain = 0
KMC5 250514Z 21006KT 13/10 A2988 RMK A01 T01270096  RH  082%=      5-min Rain = 0
KMC5 250515Z 21006KT 13/10 A2988 RMK A01 T01250096  RH  082%=      5-min Rain = 0
KMC5 250516Z 20007KT 12/10 A2988 RMK A01 T01230095  RH  083%=      5-min Rain = 0
KMC5 250517Z 20007KT 12/09 A2988 RMK A01 T01220094  RH  083%=      5-min Rain = 0
KMC5 250518Z 20007KT 12/10 A2988 RMK A01 T01220095  RH  084%=      5-min Rain = 0
KMC5 250519Z 20007KT 12/10 A2988 RMK A01 T01220095  RH  083%=      5-min Rain = 0
KMC5 250520Z 20007KT 12/09 A2988 RMK A01 T01220094  RH  083%=      5-min Rain = 0
KMC5 250521Z 20007KT 12/10 A2988 RMK A01 T01220095  RH  083%=      5-min Rain = 0
KMC5 250522Z 19008KT 12/10 A2988 RMK A01 T01220095  RH  084%=      5-min Rain = 0
KMC5 250523Z 20007KT 12/10 A2988 RMK A01 T01220095  RH  084%=      5-min Rain = 0
KMC5 250524Z 20008KT 12/10 A2988 RMK A01 T01230096  RH  083%=      5-min Rain = 0
KMC5 250525Z 20007KT 13/10 A2988 RMK A01 T01250096  RH  083%=      5-min Rain = 0
KMC5 250526Z 21007KT 13/10 A2988 RMK A01 T01250096  RH  083%=      5-min Rain = 0
KMC5 250527Z 21007KT 12/10 A2989 RMK A01 T01230095  RH  083%=      5-min Rain = 0
KMC5 250528Z 21006KT 12/09 A2989 RMK A01 T01220094  RH  083%=      5-min Rain = 0
KMC5 250529Z 21006KT 12/09 A2989 RMK A01 T01200094  RH  084%=      5-min Rain = 0
KMC5 250530Z 20006KT 12/09 A2988 RMK A01 T01190094  RH  085%=      5-min Rain = 0
KMC5 250531Z 21006KT 12/09 A2988 RMK A01 T01190094  RH  085%=      5-min Rain = 0
KMC5 250532Z 21006KT 12/10 A2988 RMK A01 T01200095  RH  084%=      5-min Rain = 0
KMC5 250533Z 21006KT 12/09 A2988 RMK A01 T01200094  RH  084%=      5-min Rain = 0
KMC5 250534Z 21006KT 12/09 A2988 RMK A01 T01200094  RH  084%=      5-min Rain = 0
KMC5 250535Z 20006KT 12/09 A2988 RMK A01 T01200094  RH  084%=      5-min Rain = 0
KMC5 250536Z 21006KT 12/09 A2988 RMK A01 T01200094  RH  084%=      5-min Rain = 0
KMC5 250537Z 21006KT 12/09 A2988 RMK A01 T01200094  RH  084%=      5-min Rain = 0
KMC5 250538Z 20006KT 12/09 A2988 RMK A01 T01200094  RH  084%=      5-min Rain = 0
KMC5 250539Z 21006KT 12/09 A2988 RMK A01 T01200094  RH  084%=      5-min Rain = 0
KMC5 250540Z 21006KT 12/10 A2988 RMK A01 T01200095  RH  085%=      5-min Rain = 0
KMC5 250541Z 21005KT 12/10 A2989 RMK A01 T01200095  RH  084%=      5-min Rain = 0
KMC5 250542Z 21006KT 12/10 A2989 RMK A01 T01200095  RH  084%=      5-min Rain = 0
KMC5 250543Z 20006KT 12/09 A2989 RMK A01 T01200094  RH  084%=      5-min Rain = 0
KMC5 250544Z 20006KT 12/09 A2989 RMK A01 T01200094  RH  084%=      5-min Rain = 0
KMC5 250545Z 20006KT 12/10 A2989 RMK A01 T01200095  RH  084%=      5-min Rain = 0
KMC5 250546Z 19006KT 12/10 A2989 RMK A01 T01210095  RH  084%=      5-min Rain = 0
KMC5 250547Z 20006KT 12/10 A2989 RMK A01 T01220095  RH  084%=      5-min Rain = 0
KMC5 250548Z 19006KT 12/10 A2989 RMK A01 T01220095  RH  084%=      5-min Rain = 0
KMC5 250549Z 20006KT 12/10 A2989 RMK A01 T01220095  RH  084%=      5-min Rain = 0
KMC5 250550Z 21006KT 12/10 A2989 RMK A01 T01210095  RH  084%=      5-min Rain = 0
KMC5 250551Z 21006KT 12/09 A2989 RMK A01 T01200094  RH  084%=      5-min Rain = 0
KMC5 250552Z 21007KT 12/09 A2989 RMK A01 T01190094  RH  085%=      5-min Rain = 0
KMC5 250553Z 22007KT 12/09 A2989 RMK A01 T01190094  RH  085%=      5-min Rain = 0
KMC5 250554Z 22007KT 12/09 A2989 RMK A01 T01190094  RH  085%=      5-min Rain = 0
KMC5 250555Z 22006KT 12/09 A2989 RMK A01 T01180094  RH  085%=      5-min Rain = 0
KMC5 250556Z 22006KT 12/09 A2989 RMK A01 T01170093  RH  085%=      5-min Rain = 0
KMC5 250557Z 22006KT 12/09 A2989 RMK A01 T01150092  RH  086%=      5-min Rain = 0
KMC5 250558Z 22006KT 11/09 A2989 RMK A01 T01130091  RH  086%=      5-min Rain = 0
KMC5 250559Z 22006KT 11/09 A2989 RMK A01 T01120091  RH  087%=      5-min Rain = 0
KMC5 250600Z 22006KT 11/09 A2989 RMK A01 T01120091  RH  087%=      5-min Rain = 0
KMC5 250601Z 22006KT 11/09 A2989 RMK A01 T01120091  RH  087%=      5-min Rain = 0
KMC5 250602Z 22007KT 11/09 A2989 RMK A01 T01120092  RH  088%=      5-min Rain = 0
KMC5 250603Z 22007KT 11/09 A2989 RMK A01 T01110092  RH  088%=      5-min Rain = 0
KMC5 250604Z 22007KT 11/09 A2989 RMK A01 T01120092  RH  088%=      5-min Rain = 0
KMC5 250605Z 22006KT 11/09 A2989 RMK A01 T01120093  RH  088%=      5-min Rain = 0
KMC5 250606Z 22006KT 11/09 A2989 RMK A01 T01120092  RH  087%=      5-min Rain = 0
KMC5 250607Z 22006KT 11/09 A2989 RMK A01 T01110092  RH  088%=      5-min Rain = 0
KMC5 250608Z 22006KT 11/09 A2989 RMK A01 T01110092  RH  088%=      5-min Rain = 0
KMC5 250609Z 22006KT 11/09 A2989 RMK A01 T01110092  RH  088%=      5-min Rain = 0
KMC5 250610Z 22006KT 11/09 A2989 RMK A01 T01110092  RH  088%=      5-min Rain = 0
KMC5 250611Z 22006KT 11/09 A2989 RMK A01 T01110093  RH  088%=      5-min Rain = 0
KMC5 250612Z 22006KT 11/09 A2989 RMK A01 T01110093  RH  089%=      5-min Rain = 0
KMC5 250613Z 22006KT 11/09 A2989 RMK A01 T01120094  RH  088%=      5-min Rain = 0
KMC5 250614Z 23005KT 11/09 A2989 RMK A01 T01130093  RH  088%=      5-min Rain = 0
KMC5 250615Z 23005KT 11/09 A2989 RMK A01 T01120092  RH  088%=      5-min Rain = 0
KMC5 250616Z 24005KT 11/09 A2989 RMK A01 T01120092  RH  088%=      5-min Rain = 0
KMC5 250617Z 24005KT 11/09 A2988 RMK A01 T01120092  RH  088%=      5-min Rain = 0
KMC5 250618Z 23005KT 11/09 A2988 RMK A01 T01110092  RH  088%=      5-min Rain = 0
KMC5 250619Z 23005KT 11/09 A2988 RMK A01 T01110092  RH  088%=      5-min Rain = 0
KMC5 250620Z 23006KT 11/09 A2988 RMK A01 T01100090  RH  088%=      5-min Rain = 0
KMC5 250621Z 24006KT 11/09 A2988 RMK A01 T01080089  RH  088%=      5-min Rain = 0
KMC5 250622Z 24005KT 11/09 A2988 RMK A01 T01070090  RH  089%=      5-min Rain = 0
KMC5 250623Z 24006KT 11/09 A2988 RMK A01 T01070090  RH  089%=      5-min Rain = 0
KMC5 250624Z 24006KT 11/09 A2988 RMK A01 T01070091  RH  090%=      5-min Rain = 0
KMC5 250625Z 24006KT 11/09 A2988 RMK A01 T01080090  RH  089%=      5-min Rain = 0
KMC5 250626Z 24005KT 11/09 A2988 RMK A01 T01080091  RH  089%=      5-min Rain = 0
KMC5 250627Z 25005KT 11/09 A2988 RMK A01 T01080091  RH  089%=      5-min Rain = 0
KMC5 250628Z 25005KT 11/09 A2988 RMK A01 T01070089  RH  089%=      5-min Rain = 0
KMC5 250629Z 25006KT 11/09 A2988 RMK A01 T01060089  RH  089%=      5-min Rain = 0
KMC5 250630Z 25006KT 11/09 A2988 RMK A01 T01060090  RH  090%=      5-min Rain = 0
KMC5 250631Z 25006KT 11/09 A2988 RMK A01 T01060090  RH  090%=      5-min Rain = 0
KMC5 250632Z 25006KT 11/09 A2988 RMK A01 T01060091  RH  090%=      5-min Rain = 0
KMC5 250633Z 25007KT 11/09 A2988 RMK A01 T01060092  RH  091%=      5-min Rain = 0
KMC5 250634Z 25007KT 11/09 A2988 RMK A01 T01070093  RH  091%=      5-min Rain = 0
KMC5 250635Z 24006KT 11/09 A2988 RMK A01 T01090093  RH  090%=      5-min Rain = 0
KMC5 250636Z 24006KT 11/09 A2988 RMK A01 T01090092  RH  089%=      5-min Rain = 0
KMC5 250637Z 24006KT 11/09 A2988 RMK A01 T01070090  RH  089%=      5-min Rain = 0
KMC5 250638Z 24006KT 11/09 A2988 RMK A01 T01070091  RH  090%=      5-min Rain = 0
KMC5 250639Z 24006KT 11/09 A2988 RMK A01 T01060089  RH  090%=      5-min Rain = 0
KMC5 250640Z 24006KT 11/09 A2988 RMK A01 T01050090  RH  090%=      5-min Rain = 0
KMC5 250641Z 24006KT 10/09 A2988 RMK A01 T01040090  RH  091%=      5-min Rain = 0
KMC5 250642Z 24006KT 10/09 A2988 RMK A01 T01040090  RH  091%=      5-min Rain = 0
KMC5 250643Z 25006KT 11/09 A2988 RMK A01 T01050091  RH  091%=      5-min Rain = 0
KMC5 250644Z 24006KT 11/09 A2988 RMK A01 T01050091  RH  091%=      5-min Rain = 0
KMC5 250645Z 24006KT 11/09 A2988 RMK A01 T01050091  RH  091%=      5-min Rain = 0
KMC5 250646Z 25006KT 11/09 A2988 RMK A01 T01050090  RH  091%=      5-min Rain = 0
KMC5 250647Z 24006KT 11/09 A2988 RMK A01 T01050090  RH  091%=      5-min Rain = 0
KMC5 250648Z 24006KT 10/09 A2988 RMK A01 T01040089  RH  090%=      5-min Rain = 0
KMC5 250649Z 24006KT 10/09 A2988 RMK A01 T01040089  RH  091%=      5-min Rain = 0
KMC5 250650Z 24006KT 10/09 A2988 RMK A01 T01030087  RH  090%=      5-min Rain = 0
KMC5 250651Z 24006KT 10/09 A2988 RMK A01 T01020087  RH  091%=      5-min Rain = 0
KMC5 250652Z 24006KT 10/09 A2988 RMK A01 T01020088  RH  091%=      5-min Rain = 0
KMC5 250653Z 24006KT 10/09 A2988 RMK A01 T01020088  RH  091%=      5-min Rain = 0
KMC5 250654Z 25007KT 10/09 A2988 RMK A01 T01020089  RH  092%=      5-min Rain = 0
KMC5 250655Z 25006KT 10/09 A2988 RMK A01 T01030091  RH  092%=      5-min Rain = 0
KMC5 250656Z 25006KT 10/09 A2987 RMK A01 T01040092  RH  092%=      5-min Rain = 0
KMC5 250657Z 25006KT 11/09 A2987 RMK A01 T01060092  RH  092%=      5-min Rain = 0
KMC5 250658Z 24006KT 11/09 A2987 RMK A01 T01060092  RH  091%=      5-min Rain = 0
KMC5 250659Z 25006KT 11/09 A2987 RMK A01 T01060092  RH  091%=      5-min Rain = 0
KMC5 250700Z 25006KT 11/09 A2987 RMK A01 T01070092  RH  091%=      5-min Rain = 0
KMC5 250701Z 25006KT 11/09 A2987 RMK A01 T01060092  RH  091%=      5-min Rain = 0
KMC5 250702Z 25006KT 11/09 A2987 RMK A01 T01060092  RH  091%=      5-min Rain = 0
KMC5 250703Z 24006KT 11/09 A2987 RMK A01 T01060092  RH  091%=      5-min Rain = 0
KMC5 250704Z 24006KT 11/09 A2987 RMK A01 T01060092  RH  091%=      5-min Rain = 0
KMC5 250705Z 25006KT 11/09 A2987 RMK A01 T01060092  RH  091%=      5-min Rain = 0
KMC5 250706Z 25006KT 11/09 A2987 RMK A01 T01060092  RH  091%=      5-min Rain = 0
KMC5 250707Z 25006KT 11/09 A2987 RMK A01 T01060092  RH  091%=      5-min Rain = 0
KMC5 250708Z 25006KT 11/09 A2987 RMK A01 T01060092  RH  091%=      5-min Rain = 0
KMC5 250709Z 25006KT 11/09 A2987 RMK A01 T01060092  RH  091%=      5-min Rain = 0
KMC5 250710Z 25006KT 11/09 A2987 RMK A01 T01060092  RH  091%=      5-min Rain = 0
KMC5 250711Z 25006KT 11/09 A2987 RMK A01 T01050091  RH  091%=      5-min Rain = 0
KMC5 250712Z 25006KT 11/09 A2987 RMK A01 T01050092  RH  091%=      5-min Rain = 0
KMC5 250713Z 26007KT 11/09 A2987 RMK A01 T01050092  RH  092%=      5-min Rain = 0
KMC5 250714Z 25006KT 11/09 A2987 RMK A01 T01050092  RH  092%=      5-min Rain = 0
KMC5 250715Z 25006KT 11/09 A2987 RMK A01 T01050093  RH  092%=      5-min Rain = 0
KMC5 250716Z 25006KT 11/09 A2987 RMK A01 T01060093  RH  092%=      5-min Rain = 0
KMC5 250717Z 25007KT 11/09 A2987 RMK A01 T01060093  RH  092%=      5-min Rain = 0
KMC5 250718Z 25007KT 11/09 A2987 RMK A01 T01060094  RH  092%=      5-min Rain = 0
KMC5 250719Z 25007KT 11/09 A2987 RMK A01 T01070094  RH  092%=      5-min Rain = 0
KMC5 250720Z 25006KT 11/10 A2987 RMK A01 T01080095  RH  092%=      5-min Rain = 0
KMC5 250721Z 25006KT 11/10 A2987 RMK A01 T01090095  RH  091%=      5-min Rain = 0
KMC5 250722Z 24006KT 11/10 A2987 RMK A01 T01090095  RH  091%=      5-min Rain = 0
KMC5 250723Z 25006KT 11/09 A2987 RMK A01 T01090094  RH  091%=      5-min Rain = 0
KMC5 250724Z 25006KT 11/10 A2987 RMK A01 T01100095  RH  091%=      5-min Rain = 0
KMC5 250725Z 25007KT 11/10 A2987 RMK A01 T01100095  RH  090%=      5-min Rain = 0
KMC5 250726Z 25006KT 11/09 A2987 RMK A01 T01100094  RH  090%=      5-min Rain = 0
KMC5 250727Z 25006KT 11/09 A2987 RMK A01 T01100094  RH  090%=      5-min Rain = 0
KMC5 250728Z 25006KT 11/09 A2987 RMK A01 T01090094  RH  090%=      5-min Rain = 0
KMC5 250729Z 25006KT 11/09 A2987 RMK A01 T01090093  RH  090%=      5-min Rain = 0
KMC5 250730Z 25006KT 11/09 A2987 RMK A01 T01080093  RH  090%=      5-min Rain = 0
KMC5 250731Z 24006KT 11/09 A2987 RMK A01 T01080094  RH  091%=      5-min Rain = 0
KMC5 250732Z 25006KT 11/09 A2986 RMK A01 T01080093  RH  091%=      5-min Rain = 0
KMC5 250733Z 25005KT 11/09 A2986 RMK A01 T01090094  RH  091%=      5-min Rain = 0
KMC5 250734Z 25006KT 11/09 A2986 RMK A01 T01090093  RH  090%=      5-min Rain = 0
KMC5 250735Z 25005KT 11/09 A2986 RMK A01 T01090094  RH  090%=      5-min Rain = 0
KMC5 250736Z 25006KT 11/09 A2986 RMK A01 T01090093  RH  090%=      5-min Rain = 0
KMC5 250737Z 25006KT 11/09 A2986 RMK A01 T01080093  RH  090%=      5-min Rain = 0
KMC5 250738Z 25006KT 11/09 A2986 RMK A01 T01080093  RH  091%=      5-min Rain = 0
KMC5 250739Z 25007KT 11/09 A2986 RMK A01 T01080094  RH  091%=      5-min Rain = 0
KMC5 250740Z 25007KT 11/09 A2986 RMK A01 T01080093  RH  091%=      5-min Rain = 0
KMC5 250741Z 25007KT 11/09 A2986 RMK A01 T01090094  RH  091%=      5-min Rain = 0
KMC5 250742Z 25007KT 11/09 A2986 RMK A01 T01090093  RH  090%=      5-min Rain = 0
KMC5 250743Z 25005KT 11/09 A2986 RMK A01 T01090094  RH  090%=      5-min Rain = 0
KMC5 250744Z 24005KT 11/09 A2986 RMK A01 T01090093  RH  090%=      5-min Rain = 0
KMC5 250745Z 25005KT 11/09 A2986 RMK A01 T01090093  RH  090%=      5-min Rain = 0
KMC5 250746Z 25005KT 11/09 A2986 RMK A01 T01090093  RH  090%=      5-min Rain = 0
KMC5 250747Z 25006KT 11/09 A2986 RMK A01 T01090093  RH  090%=      5-min Rain = 0
KMC5 250748Z 25006KT 11/09 A2986 RMK A01 T01090094  RH  090%=      5-min Rain = 0
KMC5 250749Z 25006KT 11/09 A2986 RMK A01 T01110094  RH  089%=      5-min Rain = 0
KMC5 250750Z 25007KT 11/09 A2986 RMK A01 T01100093  RH  089%=      5-min Rain = 0
KMC5 250751Z 25006KT 11/09 A2986 RMK A01 T01100094  RH  090%=      5-min Rain = 0
KMC5 250752Z 25006KT 11/09 A2986 RMK A01 T01110093  RH  089%=      5-min Rain = 0
KMC5 250753Z 25005KT 11/09 A2986 RMK A01 T01110093  RH  089%=      5-min Rain = 0
KMC5 250754Z 25005KT 11/09 A2986 RMK A01 T01100093  RH  089%=      5-min Rain = 0
KMC5 250755Z 25005KT 11/09 A2986 RMK A01 T01090092  RH  089%=      5-min Rain = 0
KMC5 250756Z 25006KT 11/09 A2986 RMK A01 T01090093  RH  090%=      5-min Rain = 0
KMC5 250757Z 25005KT 11/09 A2986 RMK A01 T01090092  RH  090%=      5-min Rain = 0
KMC5 250758Z 25005KT 11/09 A2986 RMK A01 T01080092  RH  090%=      5-min Rain = 0
KMC5 250759Z 24006KT 11/09 A2986 RMK A01 T01080093  RH  090%=      5-min Rain = 0
KMC5 250800Z 24006KT 11/09 A2986 RMK A01 T01080093  RH  090%=      5-min Rain = 0
KMC5 250801Z 24005KT 11/09 A2986 RMK A01 T01090093  RH  090%=      5-min Rain = 0
KMC5 250802Z 24005KT 11/09 A2986 RMK A01 T01090093  RH  090%=      5-min Rain = 0
KMC5 250803Z 25006KT 11/09 A2986 RMK A01 T01090093  RH  090%=      5-min Rain = 0
KMC5 250804Z 25006KT 11/09 A2986 RMK A01 T01090093  RH  090%=      5-min Rain = 0
KMC5 250805Z 25006KT 11/09 A2986 RMK A01 T01090092  RH  090%=      5-min Rain = 0
KMC5 250806Z 24006KT 11/09 A2986 RMK A01 T01080092  RH  090%=      5-min Rain = 0
KMC5 250807Z 24006KT 11/09 A2986 RMK A01 T01080092  RH  090%=      5-min Rain = 0
KMC5 250808Z 25006KT 11/09 A2986 RMK A01 T01070091  RH  090%=      5-min Rain = 0
KMC5 250809Z 25006KT 11/09 A2986 RMK A01 T01060089  RH  090%=      5-min Rain = 0
KMC5 250810Z 26008KT 10/09 A2985 RMK A01 T01040089  RH  090%=      5-min Rain = 0
KMC5 250811Z 26008KT 10/09 A2985 RMK A01 T01040092  RH  092%=      5-min Rain = 0
KMC5 250812Z 26009KT 11/09 A2985 RMK A01 T01060094  RH  092%=      5-min Rain = 0
KMC5 250813Z 26009KT 11/09 A2985 RMK A01 T01070094  RH  091%=      5-min Rain = 0
KMC5 250814Z 26009KT 11/09 A2985 RMK A01 T01080094  RH  091%=      5-min Rain = 0
KMC5 250815Z 26009KT 11/09 A2985 RMK A01 T01090094  RH  090%=      5-min Rain = 0
KMC5 250816Z 26009KT 11/09 A2985 RMK A01 T01100093  RH  090%=      5-min Rain = 0
KMC5 250817Z 26010KT 11/09 A2985 RMK A01 T01100093  RH  090%=      5-min Rain = 0
KMC5 250818Z 26011KT 11/09 A2985 RMK A01 T01110094  RH  089%=      5-min Rain = 0
KMC5 250819Z 26010KT 11/09 A2985 RMK A01 T01130094  RH  089%=      5-min Rain = 0
KMC5 250820Z 26010KT 11/09 A2985 RMK A01 T01140094  RH  088%=      5-min Rain = 0
KMC5 250821Z 26010KT 11/09 A2985 RMK A01 T01140094  RH  087%=      5-min Rain = 0
KMC5 250822Z 26010KT 11/09 A2985 RMK A01 T01140093  RH  087%=      5-min Rain = 0
KMC5 250823Z 26009KT 11/09 A2985 RMK A01 T01120092  RH  088%=      5-min Rain = 0
KMC5 250824Z 26009KT 11/09 A2985 RMK A01 T01120092  RH  088%=      5-min Rain = 0
KMC5 250825Z 26009KT 11/09 A2985 RMK A01 T01120092  RH  088%=      5-min Rain = 0
KMC5 250826Z 26009KT 11/09 A2985 RMK A01 T01110092  RH  088%=      5-min Rain = 0
KMC5 250827Z 26009KT 11/09 A2985 RMK A01 T01100091  RH  088%=      5-min Rain = 0
KMC5 250828Z 25008KT 11/09 A2985 RMK A01 T01100091  RH  088%=      5-min Rain = 0
KMC5 250829Z 25008KT 11/09 A2985 RMK A01 T01090091  RH  088%=      5-min Rain = 0
KMC5 250830Z 26008KT 11/09 A2985 RMK A01 T01090091  RH  088%=      5-min Rain = 0
KMC5 250831Z 26008KT 11/09 A2985 RMK A01 T01090090  RH  088%=      5-min Rain = 0
KMC5 250832Z 26008KT 11/09 A2985 RMK A01 T01090090  RH  088%=      5-min Rain = 0
KMC5 250833Z 26008KT 11/09 A2985 RMK A01 T01100090  RH  088%=      5-min Rain = 0
KMC5 250834Z 26007KT 11/09 A2985 RMK A01 T01090090  RH  088%=      5-min Rain = 0
KMC5 250835Z 26007KT 11/09 A2985 RMK A01 T01090090  RH  088%=      5-min Rain = 0
KMC5 250836Z 26008KT 11/09 A2985 RMK A01 T01090090  RH  088%=      5-min Rain = 0
KMC5 250837Z 26008KT 11/09 A2985 RMK A01 T01090089  RH  088%=      5-min Rain = 0
KMC5 250838Z 26007KT 11/09 A2985 RMK A01 T01080089  RH  088%=      5-min Rain = 0
KMC5 250839Z 26008KT 11/09 A2985 RMK A01 T01080089  RH  088%=      5-min Rain = 0
KMC5 250840Z 26007KT 11/09 A2985 RMK A01 T01090089  RH  088%=      5-min Rain = 0
KMC5 250841Z 26007KT 11/09 A2985 RMK A01 T01090089  RH  087%=      5-min Rain = 0
KMC5 250842Z 26007KT 11/09 A2985 RMK A01 T01090089  RH  087%=      5-min Rain = 0
KMC5 250843Z 26007KT 11/09 A2985 RMK A01 T01090089  RH  087%=      5-min Rain = 0
KMC5 250844Z 26007KT 11/09 A2985 RMK A01 T01090089  RH  087%=      5-min Rain = 0
KMC5 250845Z 26007KT 11/09 A2985 RMK A01 T01090089  RH  087%=      5-min Rain = 0
KMC5 250846Z 26007KT 11/09 A2986 RMK A01 T01090089  RH  087%=      5-min Rain = 0
KMC5 250847Z 26007KT 11/09 A2986 RMK A01 T01090089  RH  087%=      5-min Rain = 0
KMC5 250848Z 26007KT 11/09 A2986 RMK A01 T01080086  RH  086%=      5-min Rain = 0
KMC5 250849Z 25007KT 11/08 A2986 RMK A01 T01050084  RH  087%=      5-min Rain = 0
KMC5 250850Z 25006KT 10/08 A2986 RMK A01 T01030084  RH  088%=      5-min Rain = 0
KMC5 250851Z 25006KT 10/08 A2986 RMK A01 T01020084  RH  089%=      5-min Rain = 0
KMC5 250852Z 25006KT 10/09 A2986 RMK A01 T01020085  RH  089%=      5-min Rain = 0
KMC5 250853Z 25006KT 10/09 A2986 RMK A01 T01020085  RH  089%=      5-min Rain = 0
KMC5 250854Z 25005KT 10/09 A2986 RMK A01 T01020085  RH  089%=      5-min Rain = 0
KMC5 250855Z 25006KT 10/09 A2986 RMK A01 T01020085  RH  089%=      5-min Rain = 0
KMC5 250856Z 25006KT 10/09 A2986 RMK A01 T01030085  RH  089%=      5-min Rain = 0
KMC5 250857Z 25006KT 10/09 A2986 RMK A01 T01030085  RH  089%=      5-min Rain = 0
KMC5 250858Z 24005KT 10/09 A2985 RMK A01 T01030085  RH  088%=      5-min Rain = 0
KMC5 250859Z 25005KT 10/09 A2985 RMK A01 T01030085  RH  089%=      5-min Rain = 0
KMC5 250900Z 25005KT 10/09 A2985 RMK A01 T01030085  RH  089%=      5-min Rain = 0
KMC5 250901Z 25006KT 10/09 A2985 RMK A01 T01030085  RH  089%=      5-min Rain = 0
KMC5 250902Z 25006KT 10/09 A2985 RMK A01 T01030085  RH  089%=      5-min Rain = 0
KMC5 250903Z 25005KT 10/08 A2985 RMK A01 T01020084  RH  088%=      5-min Rain = 0
KMC5 250904Z 25005KT 10/08 A2985 RMK A01 T01020083  RH  088%=      5-min Rain = 0
KMC5 250905Z 25005KT 10/08 A2985 RMK A01 T01020083  RH  088%=      5-min Rain = 0
KMC5 250906Z 25005KT 10/08 A2985 RMK A01 T01020083  RH  088%=      5-min Rain = 0
KMC5 250907Z 26005KT 10/08 A2985 RMK A01 T01020083  RH  088%=      5-min Rain = 0
KMC5 250908Z 26005KT 10/08 A2985 RMK A01 T01020083  RH  088%=      5-min Rain = 0
KMC5 250909Z 26005KT 10/08 A2985 RMK A01 T01020083  RH  088%=      5-min Rain = 0
KMC5 250910Z 26006KT 10/08 A2986 RMK A01 T01020082  RH  088%=      5-min Rain = 0
KMC5 250911Z 25005KT 10/08 A2986 RMK A01 T01020082  RH  088%=      5-min Rain = 0
KMC5 250912Z 25005KT 10/08 A2986 RMK A01 T01010081  RH  087%=      5-min Rain = 0
KMC5 250913Z 25005KT 10/08 A2986 RMK A01 T01000081  RH  087%=      5-min Rain = 0
KMC5 250914Z 26006KT 10/08 A2986 RMK A01 T00990080  RH  088%=      5-min Rain = 0
KMC5 250915Z 26006KT 10/08 A2986 RMK A01 T00980079  RH  088%=      5-min Rain = 0
KMC5 250916Z 26006KT 10/08 A2986 RMK A01 T00970079  RH  088%=      5-min Rain = 0
KMC5 250917Z 26006KT 10/08 A2986 RMK A01 T00970079  RH  088%=      5-min Rain = 0
KMC5 250918Z 26006KT 10/08 A2986 RMK A01 T00980079  RH  088%=      5-min Rain = 0
KMC5 250919Z 27006KT 10/08 A2986 RMK A01 T00980079  RH  088%=      5-min Rain = 0
KMC5 250920Z 27007KT 10/08 A2986 RMK A01 T00990078  RH  087%=      5-min Rain = 0
KMC5 250921Z 27007KT 10/08 A2986 RMK A01 T00990077  RH  086%=      5-min Rain = 0
KMC5 250922Z 27007KT 10/08 A2986 RMK A01 T01010077  RH  085%=      5-min Rain = 0
KMC5 250923Z 27007KT 10/08 A2986 RMK A01 T01020077  RH  084%=      5-min Rain = 0
KMC5 250924Z 26007KT 10/08 A2986 RMK A01 T01030076  RH  084%=      5-min Rain = 0
KMC5 250925Z 26007KT 10/08 A2986 RMK A01 T01030076  RH  083%=      5-min Rain = 0
KMC5 250926Z 26006KT 10/08 A2986 RMK A01 T01040076  RH  083%=      5-min Rain = 0
KMC5 250927Z 26006KT 10/08 A2986 RMK A01 T01030075  RH  083%=      5-min Rain = 0
KMC5 250928Z 26006KT 10/08 A2986 RMK A01 T01020075  RH  083%=      5-min Rain = 0
KMC5 250929Z 26005KT 10/08 A2986 RMK A01 T01020075  RH  083%=      5-min Rain = 0
KMC5 250930Z 26005KT 10/08 A2986 RMK A01 T01020075  RH  083%=      5-min Rain = 0
KMC5 250931Z 26005KT 10/07 A2986 RMK A01 T01000074  RH  084%=      5-min Rain = 0
KMC5 250932Z 26005KT 10/07 A2986 RMK A01 T00990074  RH  085%=      5-min Rain = 0
KMC5 250933Z 26005KT 10/07 A2986 RMK A01 T00980074  RH  085%=      5-min Rain = 0
KMC5 250934Z 26005KT 10/07 A2986 RMK A01 T00980074  RH  085%=      5-min Rain = 0
KMC5 250935Z 27005KT 10/07 A2986 RMK A01 T00980074  RH  085%=      5-min Rain = 0
KMC5 250936Z 26005KT 10/07 A2986 RMK A01 T00980074  RH  085%=      5-min Rain = 0
KMC5 250937Z 26005KT 10/07 A2986 RMK A01 T00990074  RH  085%=      5-min Rain = 0
KMC5 250938Z 26005KT 10/07 A2986 RMK A01 T00990074  RH  084%=      5-min Rain = 0
KMC5 250939Z 26006KT 10/07 A2986 RMK A01 T00990074  RH  084%=      5-min Rain = 0
KMC5 250940Z 26006KT 10/07 A2986 RMK A01 T00990073  RH  084%=      5-min Rain = 0
KMC5 250941Z 27006KT 10/07 A2986 RMK A01 T00990073  RH  084%=      5-min Rain = 0
KMC5 250942Z 27005KT 10/07 A2985 RMK A01 T00980073  RH  084%=      5-min Rain = 0
KMC5 250943Z 27005KT 10/07 A2985 RMK A01 T00980073  RH  084%=      5-min Rain = 0
KMC5 250944Z 27006KT 10/07 A2985 RMK A01 T00980073  RH  084%=      5-min Rain = 0
KMC5 250945Z 27006KT 10/07 A2985 RMK A01 T00980073  RH  084%=      5-min Rain = 0
KMC5 250946Z 27007KT 10/07 A2985 RMK A01 T00980073  RH  084%=      5-min Rain = 0
KMC5 250947Z 27007KT 10/07 A2985 RMK A01 T00980072  RH  084%=      5-min Rain = 0
KMC5 250948Z 28008KT 10/07 A2985 RMK A01 T00980073  RH  084%=      5-min Rain = 0
KMC5 250949Z 27008KT 10/07 A2985 RMK A01 T00990073  RH  084%=      5-min Rain = 0
KMC5 250950Z 27008KT 10/07 A2985 RMK A01 T00990073  RH  084%=      5-min Rain = 0
KMC5 250951Z 27008KT 10/07 A2985 RMK A01 T01000073  RH  083%=      5-min Rain = 0
KMC5 250952Z 27009KT 10/07 A2985 RMK A01 T01010073  RH  083%=      5-min Rain = 0
KMC5 250953Z 27009KT 10/07 A2985 RMK A01 T01010073  RH  083%=      5-min Rain = 0
KMC5 250954Z 27009KT 10/07 A2985 RMK A01 T01010073  RH  083%=      5-min Rain = 0
KMC5 250955Z 27009KT 10/07 A2985 RMK A01 T01010073  RH  083%=      5-min Rain = 0
KMC5 250956Z 27009KT 10/07 A2985 RMK A01 T01010073  RH  083%=      5-min Rain = 0
KMC5 250957Z 27009KT 10/07 A2985 RMK A01 T01010073  RH  083%=      5-min Rain = 0
KMC5 250958Z 27010KT 10/07 A2985 RMK A01 T01000073  RH  083%=      5-min Rain = 0
KMC5 250959Z 27009KT 10/07 A2985 RMK A01 T01000073  RH  083%=      5-min Rain = 0
KMC5 251000Z 27009KT 10/07 A2985 RMK A01 T01000072  RH  083%=      5-min Rain = 0
KMC5 251001Z 27009KT 10/07 A2985 RMK A01 T01000073  RH  083%=      5-min Rain = 0
KMC5 251002Z 27009KT 10/07 A2985 RMK A01 T01010073  RH  083%=      5-min Rain = 0
KMC5 251003Z 27009KT 10/07 A2985 RMK A01 T01010073  RH  083%=      5-min Rain = 0
KMC5 251004Z 27008KT 10/07 A2985 RMK A01 T01010073  RH  083%=      5-min Rain = 0
KMC5 251005Z 27009KT 10/07 A2985 RMK A01 T01000073  RH  083%=      5-min Rain = 0
KMC5 251006Z 27009KT 10/07 A2986 RMK A01 T01000073  RH  083%=      5-min Rain = 0
KMC5 251007Z 27010KT 10/07 A2986 RMK A01 T00990073  RH  084%=      5-min Rain = 0
KMC5 251008Z 27009KT 10/07 A2986 RMK A01 T00990073  RH  084%=      5-min Rain = 0
KMC5 251009Z 27009KT 10/07 A2986 RMK A01 T00990073  RH  084%=      5-min Rain = 0
KMC5 251010Z 27009KT 10/07 A2986 RMK A01 T00990073  RH  084%=      5-min Rain = 0
KMC5 251011Z 27009KT 10/07 A2986 RMK A01 T01000074  RH  084%=      5-min Rain = 0
KMC5 251012Z 27009KT 10/07 A2986 RMK A01 T01000074  RH  084%=      5-min Rain = 0
KMC5 251013Z 27009KT 10/07 A2986 RMK A01 T01000074  RH  084%=      5-min Rain = 0
KMC5 251014Z 27009KT 10/08 A2986 RMK A01 T01010075  RH  084%=      5-min Rain = 0
KMC5 251015Z 26009KT 10/08 A2986 RMK A01 T01010075  RH  084%=      5-min Rain = 0
KMC5 251016Z 26008KT 10/08 A2986 RMK A01 T01010075  RH  084%=      5-min Rain = 0
KMC5 251017Z 26007KT 10/08 A2985 RMK A01 T01010076  RH  084%=      5-min Rain = 0
KMC5 251018Z 26007KT 10/08 A2985 RMK A01 T01010075  RH  084%=      5-min Rain = 0
KMC5 251019Z 26007KT 10/08 A2985 RMK A01 T01010075  RH  084%=      5-min Rain = 0
KMC5 251020Z 26008KT 10/08 A2985 RMK A01 T01010075  RH  084%=      5-min Rain = 0
KMC5 251021Z 26009KT 10/07 A2985 RMK A01 T01000074  RH  084%=      5-min Rain = 0
KMC5 251022Z 26009KT 10/07 A2985 RMK A01 T01000074  RH  084%=      5-min Rain = 0
KMC5 251023Z 27009KT 10/08 A2985 RMK A01 T01010075  RH  083%=      5-min Rain = 0
KMC5 251024Z 27009KT 10/07 A2985 RMK A01 T01020074  RH  083%=      5-min Rain = 0
KMC5 251025Z 27009KT 10/08 A2985 RMK A01 T01020075  RH  083%=      5-min Rain = 0
KMC5 251026Z 27009KT 10/08 A2985 RMK A01 T01020075  RH  083%=      5-min Rain = 0
KMC5 251027Z 27009KT 10/08 A2985 RMK A01 T01020075  RH  083%=      5-min Rain = 0
KMC5 251028Z 27009KT 10/08 A2985 RMK A01 T01020075  RH  083%=      5-min Rain = 0
KMC5 251029Z 27008KT 10/08 A2985 RMK A01 T01020075  RH  083%=      5-min Rain = 0
KMC5 251030Z 27008KT 10/08 A2985 RMK A01 T01030075  RH  083%=      5-min Rain = 0
KMC5 251031Z 27008KT 10/08 A2986 RMK A01 T01020075  RH  083%=      5-min Rain = 0
KMC5 251032Z 27008KT 10/08 A2986 RMK A01 T01020075  RH  083%=      5-min Rain = 0
KMC5 251033Z 27008KT 10/08 A2986 RMK A01 T01020075  RH  083%=      5-min Rain = 0
KMC5 251034Z 27009KT 10/08 A2986 RMK A01 T01030075  RH  083%=      5-min Rain = 0
KMC5 251035Z 27008KT 10/08 A2986 RMK A01 T01020075  RH  083%=      5-min Rain = 0
KMC5 251036Z 27007KT 10/07 A2986 RMK A01 T01020074  RH  083%=      5-min Rain = 0
KMC5 251037Z 27007KT 10/07 A2986 RMK A01 T01020074  RH  083%=      5-min Rain = 0
KMC5 251038Z 27006KT 10/07 A2986 RMK A01 T01020074  RH  083%=      5-min Rain = 0
KMC5 251039Z 27006KT 10/07 A2986 RMK A01 T01020074  RH  082%=      5-min Rain = 0
KMC5 251040Z 27006KT 10/07 A2986 RMK A01 T01020073  RH  082%=      5-min Rain = 0
KMC5 251041Z 27007KT 10/07 A2986 RMK A01 T01030074  RH  082%=      5-min Rain = 0
KMC5 251042Z 26007KT 10/07 A2986 RMK A01 T01020074  RH  082%=      5-min Rain = 0
KMC5 251043Z 26008KT 10/07 A2986 RMK A01 T01010073  RH  083%=      5-min Rain = 0
KMC5 251044Z 26008KT 10/07 A2986 RMK A01 T01010073  RH  083%=      5-min Rain = 0
KMC5 251045Z 27007KT 10/07 A2986 RMK A01 T01010073  RH  083%=      5-min Rain = 0
KMC5 251046Z 26007KT 10/07 A2986 RMK A01 T01010073  RH  083%=      5-min Rain = 0
KMC5 251047Z 26007KT 10/07 A2986 RMK A01 T01010073  RH  083%=      5-min Rain = 0
KMC5 251048Z 26007KT 10/07 A2986 RMK A01 T01010073  RH  083%=      5-min Rain = 0
KMC5 251049Z 27007KT 10/07 A2986 RMK A01 T01010072  RH  082%=      5-min Rain = 0
KMC5 251050Z 27007KT 10/07 A2986 RMK A01 T01010071  RH  082%=      5-min Rain = 0
KMC5 251051Z 27008KT 10/07 A2986 RMK A01 T01010072  RH  082%=      5-min Rain = 0
KMC5 251052Z 27007KT 10/07 A2986 RMK A01 T01010071  RH  082%=      5-min Rain = 0
KMC5 251053Z 27007KT 10/07 A2986 RMK A01 T00990070  RH  082%=      5-min Rain = 0
KMC5 251054Z 27007KT 10/07 A2986 RMK A01 T00950069  RH  083%=      5-min Rain = 0
KMC5 251055Z 27006KT 09/07 A2986 RMK A01 T00940069  RH  084%=      5-min Rain = 0
KMC5 251056Z 27006KT 09/07 A2986 RMK A01 T00930069  RH  085%=      5-min Rain = 0
KMC5 251057Z 27006KT 09/07 A2986 RMK A01 T00930068  RH  085%=      5-min Rain = 0
KMC5 251058Z 27006KT 09/07 A2986 RMK A01 T00910068  RH  085%=      5-min Rain = 0
KMC5 251059Z 27006KT 09/07 A2986 RMK A01 T00910068  RH  086%=      5-min Rain = 0
KMC5 251100Z 27007KT 09/07 A2986 RMK A01 T00910068  RH  086%=      5-min Rain = 0
KMC5 251101Z 27007KT 09/07 A2986 RMK A01 T00900069  RH  086%=      5-min Rain = 0
KMC5 251102Z 27007KT 09/07 A2986 RMK A01 T00900068  RH  086%=      5-min Rain = 0
KMC5 251103Z 27006KT 09/07 A2986 RMK A01 T00880069  RH  088%=      5-min Rain = 0
KMC5 251104Z 26007KT 09/07 A2986 RMK A01 T00880069  RH  088%=      5-min Rain = 0
KMC5 251105Z 27007KT 09/07 A2986 RMK A01 T00870069  RH  088%=      5-min Rain = 0
KMC5 251106Z 26006KT 09/07 A2986 RMK A01 T00890069  RH  087%=      5-min Rain = 0
KMC5 251107Z 26006KT 09/07 A2986 RMK A01 T00920069  RH  086%=      5-min Rain = 0
KMC5 251108Z 26006KT 09/07 A2986 RMK A01 T00920069  RH  085%=      5-min Rain = 0
KMC5 251109Z 26006KT 09/07 A2986 RMK A01 T00910068  RH  086%=      5-min Rain = 0
KMC5 251110Z 26006KT 09/07 A2986 RMK A01 T00890068  RH  087%=      5-min Rain = 0
KMC5 251111Z 26006KT 09/07 A2986 RMK A01 T00880068  RH  087%=      5-min Rain = 0
KMC5 251112Z 26006KT 09/07 A2986 RMK A01 T00870068  RH  087%=      5-min Rain = 0
KMC5 251113Z 26006KT 09/07 A2986 RMK A01 T00870068  RH  088%=      5-min Rain = 0
KMC5 251114Z 26006KT 09/07 A2986 RMK A01 T00860068  RH  088%=      5-min Rain = 0
KMC5 251115Z 26006KT 09/07 A2986 RMK A01 T00860068  RH  088%=      5-min Rain = 0
KMC5 251116Z 26006KT 09/07 A2986 RMK A01 T00860068  RH  089%=      5-min Rain = 0
KMC5 251117Z 26005KT 09/07 A2986 RMK A01 T00870068  RH  088%=      5-min Rain = 0
KMC5 251118Z 26005KT 09/07 A2986 RMK A01 T00870068  RH  088%=      5-min Rain = 0
KMC5 251119Z 26006KT 09/07 A2986 RMK A01 T00870069  RH  089%=      5-min Rain = 0
KMC5 251120Z 26005KT 09/07 A2986 RMK A01 T00860069  RH  089%=      5-min Rain = 0
KMC5 251121Z 26006KT 09/07 A2986 RMK A01 T00860069  RH  089%=      5-min Rain = 0
KMC5 251122Z 26006KT 09/07 A2986 RMK A01 T00860069  RH  089%=      5-min Rain = 0
KMC5 251123Z 25006KT 09/07 A2986 RMK A01 T00870069  RH  089%=      5-min Rain = 0
KMC5 251124Z 25007KT 09/07 A2986 RMK A01 T00870069  RH  088%=      5-min Rain = 0
KMC5 251125Z 25006KT 09/07 A2986 RMK A01 T00860069  RH  089%=      5-min Rain = 0
KMC5 251126Z 24006KT 09/07 A2986 RMK A01 T00860069  RH  089%=      5-min Rain = 0
KMC5 251127Z 25006KT 09/07 A2986 RMK A01 T00850069  RH  089%=      5-min Rain = 0
KMC5 251128Z 25006KT 09/07 A2986 RMK A01 T00860069  RH  090%=      5-min Rain = 0
KMC5 251129Z 25005KT 09/07 A2986 RMK A01 T00860069  RH  089%=      5-min Rain = 0
KMC5 251130Z 25005KT 09/07 A2986 RMK A01 T00870069  RH  089%=      5-min Rain = 0
KMC5 251131Z 26006KT 09/07 A2986 RMK A01 T00870069  RH  089%=      5-min Rain = 0
KMC5 251132Z 26006KT 09/07 A2986 RMK A01 T00870069  RH  088%=      5-min Rain = 0
KMC5 251133Z 25006KT 09/07 A2986 RMK A01 T00880069  RH  088%=      5-min Rain = 0
KMC5 251134Z 25007KT 09/07 A2986 RMK A01 T00880069  RH  088%=      5-min Rain = 0
KMC5 251135Z 25007KT 09/07 A2986 RMK A01 T00880069  RH  088%=      5-min Rain = 0
KMC5 251136Z 27007KT 09/07 A2986 RMK A01 T00880070  RH  088%=      5-min Rain = 0
KMC5 251137Z 25006KT 09/07 A2987 RMK A01 T00890070  RH  088%=      5-min Rain = 0
KMC5 251138Z 26006KT 09/07 A2987 RMK A01 T00890070  RH  088%=      5-min Rain = 0
KMC5 251139Z 26007KT 09/07 A2987 RMK A01 T00890069  RH  087%=      5-min Rain = 0
KMC5 251140Z 26006KT 09/07 A2987 RMK A01 T00890069  RH  087%=      5-min Rain = 0
KMC5 251141Z 25006KT 09/07 A2987 RMK A01 T00900069  RH  087%=      5-min Rain = 0
KMC5 251142Z 26006KT 09/07 A2987 RMK A01 T00900069  RH  087%=      5-min Rain = 0
KMC5 251143Z 26006KT 09/07 A2987 RMK A01 T00900069  RH  087%=      5-min Rain = 0
KMC5 251144Z 25006KT 09/07 A2987 RMK A01 T00900069  RH  087%=      5-min Rain = 0
KMC5 251145Z 26006KT 09/07 A2987 RMK A01 T00900069  RH  087%=      5-min Rain = 0
KMC5 251146Z 27006KT 09/07 A2987 RMK A01 T00900069  RH  087%=      5-min Rain = 0
KMC5 251147Z 26006KT 09/07 A2987 RMK A01 T00900069  RH  087%=      5-min Rain = 0
KMC5 251148Z 26006KT 09/07 A2987 RMK A01 T00900069  RH  086%=      5-min Rain = 0
KMC5 251149Z 26006KT 09/07 A2987 RMK A01 T00900069  RH  086%=      5-min Rain = 0
KMC5 251150Z 26007KT 09/07 A2987 RMK A01 T00910069  RH  086%=      5-min Rain = 0
KMC5 251151Z 26007KT 09/07 A2987 RMK A01 T00910069  RH  086%=      5-min Rain = 0
KMC5 251152Z 26007KT 09/07 A2987 RMK A01 T00910069  RH  086%=      5-min Rain = 0
KMC5 251153Z 26007KT 09/07 A2987 RMK A01 T00910069  RH  087%=      5-min Rain = 0
KMC5 251154Z 27007KT 09/07 A2987 RMK A01 T00910069  RH  087%=      5-min Rain = 0
KMC5 251155Z 27007KT 09/07 A2987 RMK A01 T00910069  RH  087%=      5-min Rain = 0
KMC5 251156Z 27007KT 09/07 A2987 RMK A01 T00910070  RH  086%=      5-min Rain = 0
KMC5 251157Z 27007KT 09/07 A2988 RMK A01 T00920070  RH  086%=      5-min Rain = 0
KMC5 251158Z 27006KT 09/07 A2988 RMK A01 T00920070  RH  086%=      5-min Rain = 0
KMC5 251159Z 27006KT 09/07 A2988 RMK A01 T00920069  RH  086%=      5-min Rain = 0
KMC5 251200Z 27006KT 09/07 A2988 RMK A01 T00910069  RH  086%=      5-min Rain = 0
KMC5 251201Z 27006KT 09/07 A2988 RMK A01 T00910069  RH  086%=      5-min Rain = 0
KMC5 251202Z 27006KT 09/07 A2988 RMK A01 T00910069  RH  086%=      5-min Rain = 0
KMC5 251203Z 27006KT 09/07 A2988 RMK A01 T00920068  RH  085%=      5-min Rain = 0
KMC5 251204Z 27006KT 09/07 A2988 RMK A01 T00930069  RH  085%=      5-min Rain = 0
KMC5 251205Z 27006KT 09/07 A2988 RMK A01 T00940069  RH  084%=      5-min Rain = 0
KMC5 251206Z 27006KT 10/07 A2988 RMK A01 T00950068  RH  084%=      5-min Rain = 0
KMC5 251207Z 27006KT 10/07 A2988 RMK A01 T00960069  RH  083%=      5-min Rain = 0
KMC5 251208Z 27006KT 10/07 A2988 RMK A01 T00970069  RH  083%=      5-min Rain = 0
KMC5 251209Z 27006KT 10/07 A2988 RMK A01 T00960068  RH  083%=      5-min Rain = 0
KMC5 251210Z 27006KT 10/07 A2988 RMK A01 T00960069  RH  083%=      5-min Rain = 0
KMC5 251211Z 28007KT 10/07 A2988 RMK A01 T00960069  RH  083%=      5-min Rain = 0
KMC5 251212Z 27007KT 10/07 A2988 RMK A01 T00980070  RH  083%=      5-min Rain = 0
KMC5 251213Z 27006KT 10/07 A2988 RMK A01 T01000070  RH  081%=      5-min Rain = 0
KMC5 251214Z 27007KT 10/07 A2988 RMK A01 T01010071  RH  081%=      5-min Rain = 0
KMC5 251215Z 27007KT 10/07 A2988 RMK A01 T01020071  RH  081%=      5-min Rain = 0
KMC5 251216Z 27007KT 10/07 A2988 RMK A01 T01040071  RH  080%=      5-min Rain = 0
KMC5 251217Z 26006KT 11/07 A2989 RMK A01 T01070071  RH  079%=      5-min Rain = 0
KMC5 251218Z 27007KT 11/07 A2989 RMK A01 T01070072  RH  079%=      5-min Rain = 0
KMC5 251219Z 27007KT 11/07 A2989 RMK A01 T01050071  RH  079%=      5-min Rain = 0
KMC5 251220Z 27006KT 11/07 A2989 RMK A01 T01060071  RH  079%=      5-min Rain = 0
KMC5 251221Z 28008KT 11/07 A2989 RMK A01 T01070071  RH  079%=      5-min Rain = 0
KMC5 251222Z 28008KT 11/07 A2989 RMK A01 T01080071  RH  078%=      5-min Rain = 0
KMC5 251223Z 27007KT 11/07 A2989 RMK A01 T01090071  RH  077%=      5-min Rain = 0
KMC5 251224Z 27007KT 11/07 A2989 RMK A01 T01080071  RH  078%=      5-min Rain = 0
KMC5 251225Z 28008KT 11/07 A2989 RMK A01 T01070071  RH  078%=      5-min Rain = 0
KMC5 251226Z 28007KT 11/07 A2989 RMK A01 T01080070  RH  078%=      5-min Rain = 0
KMC5 251227Z 28007KT 11/07 A2989 RMK A01 T01090072  RH  078%=      5-min Rain = 0
KMC5 251228Z 28007KT 11/07 A2989 RMK A01 T01080072  RH  078%=      5-min Rain = 0
KMC5 251229Z 28007KT 11/07 A2989 RMK A01 T01080071  RH  078%=      5-min Rain = 0
KMC5 251230Z 28007KT 11/07 A2989 RMK A01 T01080072  RH  079%=      5-min Rain = 0
KMC5 251231Z 28007KT 11/07 A2989 RMK A01 T01080073  RH  079%=      5-min Rain = 0
KMC5 251232Z 28008KT 11/07 A2989 RMK A01 T01090073  RH  078%=      5-min Rain = 0
KMC5 251233Z 28008KT 11/07 A2989 RMK A01 T01120073  RH  077%=      5-min Rain = 0
KMC5 251234Z 28009KT 11/07 A2989 RMK A01 T01130073  RH  076%=      5-min Rain = 0
KMC5 251235Z 28008KT 12/07 A2989 RMK A01 T01150074  RH  076%=      5-min Rain = 0
KMC5 251236Z 28008KT 12/08 A2989 RMK A01 T01160075  RH  076%=      5-min Rain = 0
KMC5 251237Z 27007KT 12/08 A2989 RMK A01 T01170076  RH  076%=      5-min Rain = 0
KMC5 251238Z 27006KT 12/08 A2989 RMK A01 T01180075  RH  075%=      5-min Rain = 0
KMC5 251239Z 27006KT 12/08 A2989 RMK A01 T01180077  RH  076%=      5-min Rain = 0
KMC5 251240Z 27006KT 12/08 A2989 RMK A01 T01170078  RH  077%=      5-min Rain = 0
KMC5 251241Z 27006KT 12/08 A2989 RMK A01 T01160078  RH  078%=      5-min Rain = 0
KMC5 251242Z 27007KT 11/08 A299 RMK A01 T01140078  RH  079%=      5-min Rain = 0
KMC5 251243Z 27007KT 11/08 A299 RMK A01 T01130078  RH  079%=      5-min Rain = 0
KMC5 251244Z 27007KT 11/08 A299 RMK A01 T01130078  RH  079%=      5-min Rain = 0
KMC5 251245Z 27007KT 11/08 A299 RMK A01 T01130079  RH  079%=      5-min Rain = 0
KMC5 251246Z 28007KT 11/08 A299 RMK A01 T01130079  RH  080%=      5-min Rain = 0
KMC5 251247Z 28007KT 11/08 A299 RMK A01 T01120078  RH  079%=      5-min Rain = 0
KMC5 251248Z 28007KT 11/08 A299 RMK A01 T01140079  RH  079%=      5-min Rain = 0
KMC5 251249Z 28007KT 12/08 A299 RMK A01 T01150079  RH  078%=      5-min Rain = 0
KMC5 251250Z 28007KT 12/08 A299 RMK A01 T01160080  RH  078%=      5-min Rain = 0
KMC5 251251Z 28007KT 12/08 A299 RMK A01 T01180080  RH  077%=      5-min Rain = 0
KMC5 251252Z 28007KT 12/08 A299 RMK A01 T01190080  RH  077%=      5-min Rain = 0
KMC5 251253Z 29006KT 12/08 A299 RMK A01 T01210082  RH  077%=      5-min Rain = 0
KMC5 251254Z 29006KT 12/08 A2991 RMK A01 T01210081  RH  077%=      5-min Rain = 0
KMC5 251255Z 29006KT 12/08 A2991 RMK A01 T01210083  RH  077%=      5-min Rain = 0
KMC5 251256Z 29007KT 12/08 A2991 RMK A01 T01210082  RH  077%=      5-min Rain = 0
KMC5 251257Z 29007KT 12/08 A2991 RMK A01 T01220082  RH  077%=      5-min Rain = 0
KMC5 251258Z 29007KT 12/08 A2991 RMK A01 T01230082  RH  076%=      5-min Rain = 0
KMC5 251259Z 29007KT 12/08 A2991 RMK A01 T01240083  RH  076%=      5-min Rain = 0
KMC5 251300Z 28007KT 13/08 A2991 RMK A01 T01260084  RH  076%=      5-min Rain = 0
KMC5 251301Z 28007KT 13/09 A2991 RMK A01 T01270085  RH  075%=      5-min Rain = 0
KMC5 251302Z 28007KT 13/09 A2991 RMK A01 T01270085  RH  075%=      5-min Rain = 0
KMC5 251303Z 28007KT 13/09 A2991 RMK A01 T01280087  RH  076%=      5-min Rain = 0
KMC5 251304Z 28006KT 13/09 A2991 RMK A01 T01280088  RH  077%=      5-min Rain = 0
KMC5 251305Z 28006KT 13/09 A2991 RMK A01 T01280089  RH  077%=      5-min Rain = 0
KMC5 251306Z 28006KT 13/09 A2991 RMK A01 T01280089  RH  077%=      5-min Rain = 0
KMC5 251307Z 28006KT 13/09 A2991 RMK A01 T01280089  RH  077%=      5-min Rain = 0
KMC5 251308Z 28006KT 13/09 A2991 RMK A01 T01290088  RH  076%=      5-min Rain = 0
KMC5 251309Z 28007KT 13/09 A2991 RMK A01 T01310087  RH  075%=      5-min Rain = 0
KMC5 251310Z 28007KT 13/09 A2991 RMK A01 T01330088  RH  074%=      5-min Rain = 0
KMC5 251311Z 28006KT 13/09 A2991 RMK A01 T01340089  RH  074%=      5-min Rain = 0
KMC5 251312Z 28006KT 14/09 A2992 RMK A01 T01350091  RH  074%=      5-min Rain = 0
KMC5 251313Z 28006KT 14/09 A2992 RMK A01 T01360093  RH  075%=      5-min Rain = 0
KMC5 251314Z 27005KT 14/10 A2992 RMK A01 T01380096  RH  076%=      5-min Rain = 0
KMC5 251315Z 27004KT 14/10 A2992 RMK A01 T01390097  RH  076%=      5-min Rain = 0
KMC5 251316Z 27004KT 14/10 A2992 RMK A01 T01390097  RH  076%=      5-min Rain = 0
KMC5 251317Z 27005KT 14/09 A2992 RMK A01 T01380094  RH  075%=      5-min Rain = 0
KMC5 251318Z 27005KT 14/09 A2992 RMK A01 T01370094  RH  075%=      5-min Rain = 0
KMC5 251319Z 27005KT 14/09 A2992 RMK A01 T01360092  RH  075%=      5-min Rain = 0
KMC5 251320Z 27005KT 14/09 A2992 RMK A01 T01360093  RH  075%=      5-min Rain = 0
KMC5 251321Z 27004KT 14/10 A2992 RMK A01 T01360095  RH  077%=      5-min Rain = 0
KMC5 251322Z 28004KT 14/10 A2992 RMK A01 T01350098  RH  078%=      5-min Rain = 0
KMC5 251323Z 28004KT 14/10 A2992 RMK A01 T01350096  RH  077%=      5-min Rain = 0
KMC5 251324Z 29005KT 14/09 A2992 RMK A01 T01360094  RH  076%=      5-min Rain = 0
KMC5 251325Z 29005KT 14/10 A2992 RMK A01 T01370096  RH  076%=      5-min Rain = 0
KMC5 251326Z 29005KT 14/10 A2992 RMK A01 T01400101  RH  077%=      5-min Rain = 0
KMC5 251327Z 29007KT 14/10 A2992 RMK A01 T01420097  RH  074%=      5-min Rain = 0
KMC5 251328Z 29007KT 14/10 A2992 RMK A01 T01430097  RH  074%=      5-min Rain = 0
KMC5 251329Z 29006KT 15/10 A2992 RMK A01 T01450098  RH  073%=      5-min Rain = 0
KMC5 251330Z 29006KT 15/10 A2992 RMK A01 T01460097  RH  072%=      5-min Rain = 0
KMC5 251331Z 29006KT 15/10 A2992 RMK A01 T01470097  RH  072%=      5-min Rain = 0
KMC5 251332Z 29006KT 15/10 A2992 RMK A01 T01470099  RH  073%=      5-min Rain = 0
KMC5 251333Z 29005KT 15/10 A2992 RMK A01 T01480099  RH  072%=      5-min Rain = 0
KMC5 251334Z 29005KT 15/10 A2992 RMK A01 T01470097  RH  072%=      5-min Rain = 0
KMC5 251335Z 29005KT 15/10 A2992 RMK A01 T01480097  RH  072%=      5-min Rain = 0
KMC5 251336Z 30005KT 15/10 A2992 RMK A01 T01470098  RH  072%=      5-min Rain = 0
KMC5 251337Z 30006KT 15/10 A2992 RMK A01 T01460095  RH  072%=      5-min Rain = 0
KMC5 251338Z 30006KT 15/09 A2992 RMK A01 T01450093  RH  071%=      5-min Rain = 0
KMC5 251339Z 30006KT 15/09 A2992 RMK A01 T01450093  RH  071%=      5-min Rain = 0
KMC5 251340Z 30006KT 15/10 A2992 RMK A01 T01470097  RH  072%=      5-min Rain = 0
KMC5 251341Z 31007KT 15/10 A2992 RMK A01 T01490098  RH  071%=      5-min Rain = 0
KMC5 251342Z 31007KT 15/09 A2993 RMK A01 T01530093  RH  067%=      5-min Rain = 0
KMC5 251343Z 32007KT 16/10 A2993 RMK A01 T01570095  RH  067%=      5-min Rain = 0
KMC5 251344Z 32007KT 16/09 A2993 RMK A01 T01590093  RH  065%=      5-min Rain = 0
KMC5 251345Z 32006KT 16/09 A2993 RMK A01 T01600093  RH  064%=      5-min Rain = 0
KMC5 251346Z 32006KT 16/09 A2993 RMK A01 T01610092  RH  063%=      5-min Rain = 0
KMC5 251347Z 32006KT 16/09 A2993 RMK A01 T01620094  RH  064%=      5-min Rain = 0
KMC5 251348Z 32005KT 16/10 A2993 RMK A01 T01640098  RH  065%=      5-min Rain = 0
KMC5 251349Z 32005KT 17/10 A2993 RMK A01 T01660101  RH  065%=      5-min Rain = 0
KMC5 251350Z 32005KT 17/10 A2993 RMK A01 T01670101  RH  065%=      5-min Rain = 0
KMC5 251351Z 32005KT 17/10 A2993 RMK A01 T01700095  RH  061%=      5-min Rain = 0
KMC5 251352Z 32004KT 17/10 A2993 RMK A01 T01720102  RH  064%=      5-min Rain = 0
KMC5 251353Z 32005KT 17/10 A2993 RMK A01 T01730099  RH  062%=      5-min Rain = 0
KMC5 251354Z 31005KT 17/10 A2993 RMK A01 T01740102  RH  062%=      5-min Rain = 0
KMC5 251355Z 33005KT 18/11 A2993 RMK A01 T01760105  RH  063%=      5-min Rain = 0
KMC5 251356Z 33006KT 18/10 A2993 RMK A01 T01790098  RH  059%=      5-min Rain = 0
KMC5 251357Z 32005KT 18/10 A2993 RMK A01 T01810098  RH  058%=      5-min Rain = 0
KMC5 251358Z 33004KT 18/11 A2993 RMK A01 T01820105  RH  061%=      5-min Rain = 0
KMC5 251359Z 33006KT 18/11 A2993 RMK A01 T01820106  RH  061%=      5-min Rain = 0
KMC5 251400Z 32006KT 18/09 A2993 RMK A01 T01810094  RH  057%=      5-min Rain = 0
KMC5 251401Z 33005KT 18/10 A2994 RMK A01 T01810096  RH  058%=      5-min Rain = 0
KMC5 251402Z 33006KT 18/10 A2994 RMK A01 T01810097  RH  058%=      5-min Rain = 0
KMC5 251403Z 33006KT 18/10 A2994 RMK A01 T01810097  RH  058%=      5-min Rain = 0
KMC5 251404Z 33005KT 18/10 A2994 RMK A01 T01810097  RH  058%=      5-min Rain = 0
KMC5 251405Z 34006KT 18/10 A2994 RMK A01 T01830098  RH  057%=      5-min Rain = 0
KMC5 251406Z 33006KT 19/09 A2994 RMK A01 T01850093  RH  055%=      5-min Rain = 0
KMC5 251407Z 32007KT 19/09 A2993 RMK A01 T01860090  RH  054%=      5-min Rain = 0
KMC5 251408Z 33006KT 19/10 A2993 RMK A01 T01850095  RH  056%=      5-min Rain = 0
KMC5 251409Z 33006KT 19/09 A2993 RMK A01 T01850093  RH  055%=      5-min Rain = 0
KMC5 251410Z 32006KT 19/10 A2993 RMK A01 T01860098  RH  057%=      5-min Rain = 0
KMC5 251411Z 32006KT 19/09 A2993 RMK A01 T01860094  RH  055%=      5-min Rain = 0
KMC5 251412Z 32008KT 19/09 A2993 RMK A01 T01850085  RH  052%=      5-min Rain = 0
KMC5 251413Z 32008KT 19/08 A2993 RMK A01 T01850083  RH  051%=      5-min Rain = 0
KMC5 251414Z 32006KT 19/09 A2993 RMK A01 T01850089  RH  054%=      5-min Rain = 0
KMC5 251415Z 32006KT 18/09 A2993 RMK A01 T01840088  RH  053%=      5-min Rain = 0
KMC5 251416Z 32006KT 19/09 A2993 RMK A01 T01850089  RH  053%=      5-min Rain = 0
KMC5 251417Z 32007KT 19/09 A2993 RMK A01 T01870091  RH  054%=      5-min Rain = 0
KMC5 251418Z 32007KT 19/09 A2993 RMK A01 T01870091  RH  054%=      5-min Rain = 0
KMC5 251419Z 33009KT 19/09 A2993 RMK A01 T01880086  RH  051%=      5-min Rain = 0
KMC5 251420Z 32009KT 19/09 A2993 RMK A01 T01890085  RH  051%=      5-min Rain = 0
KMC5 251421Z 32009KT 19/08 A2993 RMK A01 T01880080  RH  049%=      5-min Rain = 0
KMC5 251422Z 32008KT 19/08 A2993 RMK A01 T01860083  RH  051%=      5-min Rain = 0
KMC5 251423Z 32009KT 19/08 A2993 RMK A01 T01860084  RH  051%=      5-min Rain = 0
KMC5 251424Z 32009KT 19/08 A2993 RMK A01 T01860084  RH  051%=      5-min Rain = 0
KMC5 251425Z 32009KT 19/09 A2993 RMK A01 T01860085  RH  052%=      5-min Rain = 0
KMC5 251426Z 33009KT 19/09 A2993 RMK A01 T01860085  RH  052%=      5-min Rain = 0
KMC5 251427Z 33009KT 19/09 A2993 RMK A01 T01870086  RH  052%=      5-min Rain = 0
KMC5 251428Z 33009KT 19/09 A2993 RMK A01 T01870086  RH  052%=      5-min Rain = 0
KMC5 251429Z 33010KT 19/08 A2993 RMK A01 T01880083  RH  051%=      5-min Rain = 0
KMC5 251430Z 33009KT 19/09 A2993 RMK A01 T01880085  RH  051%=      5-min Rain = 0
KMC5 251431Z 31009KT 19/09 A2993 RMK A01 T01900089  RH  052%=      5-min Rain = 0
KMC5 251432Z 32009KT 19/09 A2993 RMK A01 T01910086  RH  050%=      5-min Rain = 0
KMC5 251433Z 33009KT 19/09 A2993 RMK A01 T01910086  RH  050%=      5-min Rain = 0
KMC5 251434Z 33009KT 19/09 A2993 RMK A01 T01920086  RH  050%=      5-min Rain = 0
KMC5 251435Z 33010KT 19/08 A2993 RMK A01 T01930083  RH  049%=      5-min Rain = 0
KMC5 251436Z 33009KT 19/08 A2994 RMK A01 T01930082  RH  049%=      5-min Rain = 0
KMC5 251437Z 32010KT 19/08 A2994 RMK A01 T01930082  RH  049%=      5-min Rain = 0
KMC5 251438Z 33010KT 19/08 A2994 RMK A01 T01930080  RH  048%=      5-min Rain = 0
KMC5 251439Z 33010KT 19/08 A2994 RMK A01 T01940078  RH  047%=      5-min Rain = 0
KMC5 251440Z 33010KT 19/08 A2994 RMK A01 T01940082  RH  048%=      5-min Rain = 0
KMC5 251441Z 32009KT 19/09 A2994 RMK A01 T01930088  RH  050%=      5-min Rain = 0
KMC5 251442Z 33010KT 19/09 A2994 RMK A01 T01940090  RH  051%=      5-min Rain = 0
KMC5 251443Z 32010KT 20/09 A2994 RMK A01 T01950087  RH  050%=      5-min Rain = 0
KMC5 251444Z 32009KT 19/09 A2993 RMK A01 T01930085  RH  049%=      5-min Rain = 0
KMC5 251445Z 32007KT 19/09 A2993 RMK A01 T01930088  RH  051%=      5-min Rain = 0
KMC5 251446Z 31008KT 19/09 A2993 RMK A01 T01940091  RH  051%=      5-min Rain = 0
KMC5 251447Z 32008KT 20/09 A2993 RMK A01 T01950087  RH  050%=      5-min Rain = 0
KMC5 251448Z 33006KT 19/09 A2993 RMK A01 T01940093  RH  052%=      5-min Rain = 0
KMC5 251449Z 33007KT 20/09 A2993 RMK A01 T01960089  RH  050%=      5-min Rain = 0
KMC5 251450Z 33007KT 20/09 A2993 RMK A01 T01970086  RH  049%=      5-min Rain = 0
KMC5 251451Z 34008KT 20/09 A2994 RMK A01 T01960087  RH  049%=      5-min Rain = 0
KMC5 251452Z 35007KT 20/08 A2994 RMK A01 T01970082  RH  047%=      5-min Rain = 0
KMC5 251453Z 33008KT 20/08 A2994 RMK A01 T02000083  RH  047%=      5-min Rain = 0
KMC5 251454Z 33008KT 20/09 A2994 RMK A01 T02010086  RH  047%=      5-min Rain = 0
KMC5 251455Z 33008KT 20/09 A2994 RMK A01 T02000086  RH  048%=      5-min Rain = 0
KMC5 251456Z 33008KT 20/09 A2994 RMK A01 T02000087  RH  048%=      5-min Rain = 0
KMC5 251457Z 34009KT 20/08 A2994 RMK A01 T02000082  RH  046%=      5-min Rain = 0
KMC5 251458Z 34007KT 20/08 A2994 RMK A01 T02010080  RH  046%=      5-min Rain = 0
KMC5 251459Z 34007KT 20/09 A2994 RMK A01 T02020085  RH  047%=      5-min Rain = 0
KMC5 251500Z 33006KT 20/09 A2994 RMK A01 T02030085  RH  046%=      5-min Rain = 0
KMC5 251501Z 35009KT 20/08 A2994 RMK A01 T02040081  RH  045%=      5-min Rain = 0
KMC5 251502Z 36009KT 21/08 A2994 RMK A01 T02070076  RH  043%=      5-min Rain = 0
KMC5 251503Z 00009KT 21/08 A2994 RMK A01 T02090076  RH  042%=      5-min Rain = 0
KMC5 251504Z 34007KT 21/08 A2994 RMK A01 T02090079  RH  043%=      5-min Rain = 0
KMC5 251505Z 35008KT 21/08 A2995 RMK A01 T02110082  RH  043%=      5-min Rain = 0
KMC5 251506Z 34010KT 21/08 A2995 RMK A01 T02130076  RH  041%=      5-min Rain = 0
KMC5 251507Z 33010KT 21/08 A2995 RMK A01 T02110075  RH  041%=      5-min Rain = 0
KMC5 251508Z 34009KT 21/08 A2995 RMK A01 T02110076  RH  042%=      5-min Rain = 0
KMC5 251509Z 34009KT 21/08 A2995 RMK A01 T02130077  RH  042%=      5-min Rain = 0
KMC5 251510Z 34010KT 21/08 A2995 RMK A01 T02140077  RH  041%=      5-min Rain = 0
KMC5 251511Z 33010KT 21/08 A2995 RMK A01 T02140080  RH  042%=      5-min Rain = 0
KMC5 251512Z 34010KT 21/07 A2995 RMK A01 T02140068  RH  039%=      5-min Rain = 0
KMC5 251513Z 33011KT 21/07 A2995 RMK A01 T02120072  RH  040%=      5-min Rain = 0
KMC5 251514Z 32012KT 21/08 A2995 RMK A01 T02110083  RH  044%=      5-min Rain = 0
KMC5 251515Z 32013KT 21/08 A2995 RMK A01 T02100081  RH  043%=      5-min Rain = 0
KMC5 251516Z 33014KT 21/07 A2995 RMK A01 T02090068  RH  040%=      5-min Rain = 0
KMC5 251517Z 33012KT 21/07 A2995 RMK A01 T02070072  RH  041%=      5-min Rain = 0
KMC5 251518Z 33013KT 21/07 A2995 RMK A01 T02060073  RH  042%=      5-min Rain = 0
KMC5 251519Z 32011KT 21/07 A2995 RMK A01 T02070074  RH  042%=      5-min Rain = 0
KMC5 251520Z 32014KT 21/07 A2995 RMK A01 T02080065  RH  039%=      5-min Rain = 0
KMC5 251521Z 33014KT 21/07 A2995 RMK A01 T02100067  RH  040%=      5-min Rain = 0
KMC5 251522Z 33014KT 21/07 A2995 RMK A01 T02110065  RH  039%=      5-min Rain = 0
KMC5 251523Z 32012KT 21/07 A2995 RMK A01 T02100067  RH  040%=      5-min Rain = 0
KMC5 251524Z 32014KT 21/07 A2996 RMK A01 T02090069  RH  040%=      5-min Rain = 0
KMC5 251525Z 33015KT 21/07 A2996 RMK A01 T02080070  RH  041%=      5-min Rain = 0
KMC5 251526Z 32015KT 21/08 A2996 RMK A01 T02090079  RH  043%=      5-min Rain = 0
KMC5 251527Z 32019KT 21/08 A2996 RMK A01 T02110083  RH  044%=      5-min Rain = 0
KMC5 251528Z 32017KT 21/08 A2996 RMK A01 T02100079  RH  043%=      5-min Rain = 0
KMC5 251529Z 32015G21KT 21/08 A2996 RMK A01 T02090078  RH  043%=      5-min Rain = 0
KMC5 251530Z 32019KT 21/08 A2996 RMK A01 T02070079  RH  044%=      5-min Rain = 0
KMC5 251531Z 32018KT 21/08 A2996 RMK A01 T02050081  RH  045%=      5-min Rain = 0
KMC5 251532Z 32018KT 20/08 A2996 RMK A01 T02030079  RH  045%=      5-min Rain = 0
KMC5 251533Z 32017KT 20/08 A2996 RMK A01 T02010081  RH  046%=      5-min Rain = 0
KMC5 251534Z 33016KT 20/09 A2996 RMK A01 T02040086  RH  047%=      5-min Rain = 0
KMC5 251535Z 32016G21KT 21/08 A2996 RMK A01 T02060078  RH  044%=      5-min Rain = 0
KMC5 251536Z 32017KT 20/08 A2996 RMK A01 T02040077  RH  044%=      5-min Rain = 0
KMC5 251537Z 32019KT 20/07 A2997 RMK A01 T02020074  RH  044%=      5-min Rain = 0
KMC5 251538Z 33019KT 20/07 A2997 RMK A01 T02000073  RH  044%=      5-min Rain = 0
KMC5 251539Z 33017KT 20/08 A2997 RMK A01 T02020076  RH  044%=      5-min Rain = 0
KMC5 251540Z 34018G25KT 21/08 A2997 RMK A01 T02050077  RH  044%=      5-min Rain = 0
KMC5 251541Z 34021G26KT 21/07 A2997 RMK A01 T02050069  RH  041%=      5-min Rain = 0
KMC5 251542Z 33022KT 20/07 A2997 RMK A01 T02020068  RH  042%=      5-min Rain = 0
KMC5 251543Z 34018G23KT 20/07 A2997 RMK A01 T02010072  RH  043%=      5-min Rain = 0
KMC5 251544Z 34022KT 20/07 A2997 RMK A01 T02020069  RH  042%=      5-min Rain = 0
KMC5 251545Z 34017KT 20/07 A2997 RMK A01 T02020070  RH  042%=      5-min Rain = 0
KMC5 251546Z 33018G23KT 20/07 A2997 RMK A01 T02030071  RH  042%=      5-min Rain = 0
KMC5 251547Z 33020KT 20/07 A2997 RMK A01 T02030071  RH  042%=      5-min Rain = 0
KMC5 251548Z 33021KT 20/07 A2997 RMK A01 T02030067  RH  041%=      5-min Rain = 0
KMC5 251549Z 34020KT 20/07 A2997 RMK A01 T01990067  RH  042%=      5-min Rain = 0
KMC5 251550Z 33019KT 20/07 A2997 RMK A01 T01980067  RH  043%=      5-min Rain = 0
KMC5 251551Z 33017KT 20/07 A2997 RMK A01 T01970069  RH  043%=      5-min Rain = 0
KMC5 251552Z 34018KT 20/08 A2997 RMK A01 T02000075  RH  044%=      5-min Rain = 0
KMC5 251553Z 34022KT 20/07 A2997 RMK A01 T02020073  RH  043%=      5-min Rain = 0
KMC5 251554Z 34021KT 20/07 A2997 RMK A01 T02010068  RH  042%=      5-min Rain = 0
KMC5 251555Z 34020KT 20/07 A2997 RMK A01 T01980067  RH  042%=      5-min Rain = 0
KMC5 251556Z 35019KT 20/07 A2997 RMK A01 T01970067  RH  043%=      5-min Rain = 0
KMC5 251557Z 33018KT 20/07 A2998 RMK A01 T01970071  RH  044%=      5-min Rain = 0
KMC5 251558Z 33019KT 20/08 A2998 RMK A01 T01990075  RH  045%=      5-min Rain = 0
KMC5 251559Z 34020KT 20/08 A2998 RMK A01 T01990076  RH  045%=      5-min Rain = 0
KMC5 251600Z 34019KT 20/08 A2998 RMK A01 T01970075  RH  045%=      5-min Rain = 0
KMC5 251601Z 34017KT 20/08 A2998 RMK A01 T01960076  RH  046%=      5-min Rain = 0
KMC5 251602Z 34020KT 20/07 A2998 RMK A01 T01980074  RH  045%=      5-min Rain = 0
KMC5 251603Z 34017KT 20/07 A2998 RMK A01 T01970072  RH  044%=      5-min Rain = 0
KMC5 251604Z 34017KT 20/08 A2998 RMK A01 T01960077  RH  046%=      5-min Rain = 0
KMC5 251605Z 34018G23KT 20/08 A2998 RMK A01 T01980078  RH  046%=      5-min Rain = 0
KMC5 251606Z 34018KT 20/07 A2998 RMK A01 T01980074  RH  045%=      5-min Rain = 0
KMC5 251607Z 34018KT 20/08 A2998 RMK A01 T01970077  RH  046%=      5-min Rain = 0
KMC5 251608Z 34017KT 20/08 A2998 RMK A01 T01970076  RH  045%=      5-min Rain = 0
KMC5 251609Z 34020KT 20/08 A2998 RMK A01 T01970076  RH  045%=      5-min Rain = 0
KMC5 251610Z 34018KT 20/07 A2998 RMK A01 T01970074  RH  045%=      5-min Rain = 0
KMC5 251611Z 33019KT 20/07 A2998 RMK A01 T01970073  RH  045%=      5-min Rain = 0
KMC5 251612Z 33018KT 20/07 A2998 RMK A01 T01960074  RH  045%=      5-min Rain = 0
KMC5 251613Z 34018KT 20/07 A2998 RMK A01 T01960074  RH  045%=      5-min Rain = 0
KMC5 251614Z 34017KT 20/08 A2998 RMK A01 T01980078  RH  046%=      5-min Rain = 0
KMC5 251615Z 35019KT 20/07 A2998 RMK A01 T02000071  RH  043%=      5-min Rain = 0
KMC5 251616Z 35018KT 20/07 A2998 RMK A01 T02000070  RH  043%=      5-min Rain = 0
KMC5 251617Z 34017KT 20/07 A2998 RMK A01 T02000074  RH  044%=      5-min Rain = 0
KMC5 251618Z 34017KT 20/08 A2998 RMK A01 T02010078  RH  045%=      5-min Rain = 0
KMC5 251619Z 34018G23KT 20/08 A2998 RMK A01 T02020078  RH  045%=      5-min Rain = 0
KMC5 251620Z 33020KT 20/08 A2998 RMK A01 T02030075  RH  044%=      5-min Rain = 0
KMC5 251621Z 34020KT 20/08 A2998 RMK A01 T02020075  RH  044%=      5-min Rain = 0
KMC5 251622Z 34019KT 20/07 A2998 RMK A01 T02030074  RH  043%=      5-min Rain = 0
KMC5 251623Z 33020KT 20/08 A2998 RMK A01 T02030075  RH  043%=      5-min Rain = 0
KMC5 251624Z 34021G26KT 20/07 A2999 RMK A01 T02030073  RH  043%=      5-min Rain = 0
KMC5 251625Z 34017KT 20/08 A2999 RMK A01 T02020076  RH  044%=      5-min Rain = 0
KMC5 251626Z 34023KT 20/08 A2999 RMK A01 T02040075  RH  043%=      5-min Rain = 0
KMC5 251627Z 34022KT 20/07 A2999 RMK A01 T02020072  RH  043%=      5-min Rain = 0
KMC5 251628Z 34020KT 20/07 A2999 RMK A01 T02000073  RH  044%=      5-min Rain = 0
KMC5 251629Z 34018KT 20/07 A2999 RMK A01 T02010073  RH  044%=      5-min Rain = 0
KMC5 251630Z 35021KT 20/08 A2999 RMK A01 T02030077  RH  044%=      5-min Rain = 0
KMC5 251631Z 36019KT 21/07 A2999 RMK A01 T02060072  RH  042%=      5-min Rain = 0
KMC5 251632Z 35020KT 21/08 A2999 RMK A01 T02060075  RH  043%=      5-min Rain = 0
KMC5 251633Z 34020KT 21/07 A2999 RMK A01 T02060073  RH  042%=      5-min Rain = 0
KMC5 251634Z 34021KT 21/08 A2999 RMK A01 T02060075  RH  043%=      5-min Rain = 0
KMC5 251635Z 34020KT 21/07 A2999 RMK A01 T02060073  RH  042%=      5-min Rain = 0
KMC5 251636Z 34022KT 21/08 A2999 RMK A01 T02060075  RH  043%=      5-min Rain = 0
KMC5 251637Z 34020KT 21/07 A2999 RMK A01 T02070072  RH  042%=      5-min Rain = 0
KMC5 251638Z 34019KT 21/08 A2999 RMK A01 T02070075  RH  042%=      5-min Rain = 0
KMC5 251639Z 34020KT 21/07 A2999 RMK A01 T02070074  RH  042%=      5-min Rain = 0
KMC5 251640Z 34019KT 21/08 A2999 RMK A01 T02080076  RH  042%=      5-min Rain = 0
KMC5 251641Z 35020G26KT 21/08 A2999 RMK A01 T02100079  RH  043%=      5-min Rain = 0
KMC5 251642Z 35020KT 21/08 A2999 RMK A01 T02120075  RH  041%=      5-min Rain = 0
KMC5 251643Z 35021G26KT 21/07 A2999 RMK A01 T02120072  RH  040%=      5-min Rain = 0
KMC5 251644Z 35018KT 21/07 A2999 RMK A01 T02110071  RH  040%=      5-min Rain = 0
KMC5 251645Z 35020KT 21/08 A2999 RMK A01 T02130076  RH  041%=      5-min Rain = 0
KMC5 251646Z 35022KT 21/07 A2999 RMK A01 T02140071  RH  040%=      5-min Rain = 0
KMC5 251647Z 34020G25KT 21/07 A2999 RMK A01 T02130073  RH  040%=      5-min Rain = 0
KMC5 251648Z 34020G25KT 21/08 A2999 RMK A01 T02130076  RH  041%=      5-min Rain = 0
KMC5 251649Z 33022G27KT 21/08 A2999 RMK A01 T02130077  RH  041%=      5-min Rain = 0
KMC5 251650Z 34021KT 21/08 A2999 RMK A01 T02140076  RH  041%=      5-min Rain = 0
KMC5 251651Z 34024KT 21/07 A2999 RMK A01 T02130073  RH  040%=      5-min Rain = 0
KMC5 251652Z 34021G26KT 21/07 A2999 RMK A01 T02120072  RH  040%=      5-min Rain = 0
KMC5 251653Z 35020KT 21/08 A2999 RMK A01 T02120076  RH  042%=      5-min Rain = 0
KMC5 251654Z 35021KT 21/08 A2999 RMK A01 T02130076  RH  041%=      5-min Rain = 0
KMC5 251655Z 33022KT 21/08 A30 RMK A01 T02130078  RH  042%=      5-min Rain = 0
KMC5 251656Z 33021KT 21/08 A30 RMK A01 T02130077  RH  041%=      5-min Rain = 0
KMC5 251657Z 34019KT 21/08 A30 RMK A01 T02130081  RH  043%=      5-min Rain = 0
KMC5 251658Z 34021KT 21/08 A30 RMK A01 T02140080  RH  042%=      5-min Rain = 0
KMC5 251659Z 33025KT 21/08 A30 RMK A01 T02140080  RH  042%=      5-min Rain = 0
KMC5 251700Z 34024KT 21/08 A30 RMK A01 T02140078  RH  042%=      5-min Rain = 0
KMC5 251701Z 35023KT 21/08 A30 RMK A01 T02120078  RH  042%=      5-min Rain = 0
KMC5 251702Z 34022G27KT 21/08 A30 RMK A01 T02120079  RH  042%=      5-min Rain = 0
KMC5 251703Z 33023KT 21/08 A30 RMK A01 T02120078  RH  042%=      5-min Rain = 0
KMC5 251704Z 34026G31KT 21/08 A30 RMK A01 T02130078  RH  042%=      5-min Rain = 0
KMC5 251705Z 35024KT 21/08 A30 RMK A01 T02120076  RH  041%=      5-min Rain = 0
KMC5 251706Z 33022KT 21/08 A30 RMK A01 T02120078  RH  042%=      5-min Rain = 0
KMC5 251707Z 35022KT 21/08 A30 RMK A01 T02120080  RH  043%=      5-min Rain = 0
KMC5 251708Z 34023KT 21/08 A30 RMK A01 T02140080  RH  042%=      5-min Rain = 0
KMC5 251709Z 34025G31KT 21/08 A30 RMK A01 T02140081  RH  042%=      5-min Rain = 0
KMC5 251710Z 33022KT 21/08 A30 RMK A01 T02130083  RH  043%=      5-min Rain = 0
KMC5 251711Z 34025KT 21/08 A30 RMK A01 T02130081  RH  043%=      5-min Rain = 0
KMC5 251712Z 35025KT 21/08 A30 RMK A01 T02130079  RH  042%=      5-min Rain = 0
KMC5 251713Z 35023KT 21/08 A30 RMK A01 T02120079  RH  042%=      5-min Rain = 0
KMC5 251714Z 35021KT 21/08 A30 RMK A01 T02100079  RH  043%=      5-min Rain = 0
KMC5 251715Z 34022G27KT 21/08 A30 RMK A01 T02110081  RH  043%=      5-min Rain = 0
KMC5 251716Z 34023G28KT 21/08 A3001 RMK A01 T02110078  RH  042%=      5-min Rain = 0
KMC5 251717Z 33023G28KT 21/08 A3001 RMK A01 T02100083  RH  044%=      5-min Rain = 0
KMC5 251718Z 34023KT 21/08 A3001 RMK A01 T02120082  RH  043%=      5-min Rain = 0
KMC5 251719Z 34021KT 21/08 A3001 RMK A01 T02110082  RH  044%=      5-min Rain = 0
KMC5 251720Z 34021KT 21/09 A3001 RMK A01 T02110085  RH  044%=      5-min Rain = 0
KMC5 251721Z 35022KT 21/08 A3001 RMK A01 T02130084  RH  043%=      5-min Rain = 0
KMC5 251722Z 35022KT 21/08 A3001 RMK A01 T02140081  RH  042%=      5-min Rain = 0
KMC5 251723Z 34021G26KT 21/08 A3001 RMK A01 T02120083  RH  044%=      5-min Rain = 0
KMC5 251724Z 34026KT 21/08 A3001 RMK A01 T02130082  RH  043%=      5-min Rain = 0
KMC5 251725Z 34022KT 21/08 A3001 RMK A01 T02120083  RH  043%=      5-min Rain = 0
KMC5 251726Z 34021KT 21/08 A3001 RMK A01 T02110083  RH  043%=      5-min Rain = 0
KMC5 251727Z 34023KT 21/08 A3001 RMK A01 T02100083  RH  044%=      5-min Rain = 0
KMC5 251728Z 35020KT 21/09 A3001 RMK A01 T02120085  RH  044%=      5-min Rain = 0
KMC5 251729Z 36020KT 22/08 A3001 RMK A01 T02160084  RH  043%=      5-min Rain = 0
KMC5 251730Z 34023G29KT 22/09 A3001 RMK A01 T02180087  RH  043%=      5-min Rain = 0
KMC5 251731Z 35024KT 22/09 A3001 RMK A01 T02180085  RH  042%=      5-min Rain = 0
KMC5 251732Z 34023KT 22/09 A3001 RMK A01 T02170085  RH  043%=      5-min Rain = 0
KMC5 251733Z 34022KT 22/09 A3001 RMK A01 T02170086  RH  043%=      5-min Rain = 0
KMC5 251734Z 35018KT 21/09 A3001 RMK A01 T02140087  RH  044%=      5-min Rain = 0
KMC5 251735Z 34022G28KT 21/09 A3001 RMK A01 T02130090  RH  045%=      5-min Rain = 0
KMC5 251736Z 34021KT 22/09 A3002 RMK A01 T02160090  RH  045%=      5-min Rain = 0
KMC5 251737Z 34020G28KT 22/09 A3001 RMK A01 T02150088  RH  044%=      5-min Rain = 0
KMC5 251738Z 34024KT 21/09 A3002 RMK A01 T02140090  RH  045%=      5-min Rain = 0
KMC5 251739Z 33021KT 22/09 A3002 RMK A01 T02150091  RH  045%=      5-min Rain = 0
KMC5 251740Z 34023G29KT 22/09 A3002 RMK A01 T02160091  RH  045%=      5-min Rain = 0
KMC5 251741Z 34026KT 22/09 A3002 RMK A01 T02150088  RH  044%=      5-min Rain = 0
KMC5 251742Z 34023KT 21/09 A3002 RMK A01 T02130090  RH  045%=      5-min Rain = 0
KMC5 251743Z 35024KT 21/09 A3002 RMK A01 T02120091  RH  046%=      5-min Rain = 0
KMC5 251744Z 34022G28KT 21/09 A3002 RMK A01 T02130092  RH  046%=      5-min Rain = 0
KMC5 251745Z 35026KT 22/09 A3002 RMK A01 T02150090  RH  045%=      5-min Rain = 0
KMC5 251746Z 35025KT 22/09 A3002 RMK A01 T02150089  RH  044%=      5-min Rain = 0
KMC5 251747Z 35020G26KT 21/09 A3002 RMK A01 T02130089  RH  045%=      5-min Rain = 0
KMC5 251748Z 35022KT 22/09 A3002 RMK A01 T02150092  RH  045%=      5-min Rain = 0
KMC5 251749Z 34023G28KT 22/09 A3002 RMK A01 T02160091  RH  045%=      5-min Rain = 0
KMC5 251750Z 34022G28KT 21/09 A3002 RMK A01 T02140094  RH  046%=      5-min Rain = 0
KMC5 251751Z 35025KT 22/09 A3002 RMK A01 T02150093  RH  046%=      5-min Rain = 0
KMC5 251752Z 34024KT 22/09 A3002 RMK A01 T02160094  RH  046%=      5-min Rain = 0
KMC5 251753Z 34026KT 22/09 A3002 RMK A01 T02170094  RH  046%=      5-min Rain = 0
KMC5 251754Z 34025KT 22/09 A3002 RMK A01 T02150092  RH  045%=      5-min Rain = 0
KMC5 251755Z 34024KT 21/09 A3002 RMK A01 T02130093  RH  046%=      5-min Rain = 0
KMC5 251756Z 36026KT 21/09 A3002 RMK A01 T02130092  RH  046%=      5-min Rain = 0
KMC5 251757Z 34023KT 21/09 A3002 RMK A01 T02140093  RH  046%=      5-min Rain = 0
KMC5 251758Z 34020KT 21/09 A3002 RMK A01 T02130094  RH  047%=      5-min Rain = 0
KMC5 251759Z 35020KT 22/10 A3002 RMK A01 T02150096  RH  047%=      5-min Rain = 0
KMC5 251800Z 00027KT 22/09 A3002 RMK A01 T02180092  RH  044%=      5-min Rain = 0
KMC5 251801Z 00025G31KT 21/09 A3002 RMK A01 T02140087  RH  044%=      5-min Rain = 0
KMC5 251802Z 36026KT 21/09 A3002 RMK A01 T02120089  RH  045%=      5-min Rain = 0
KMC5 251803Z 35023KT 21/09 A3002 RMK A01 T02130090  RH  045%=      5-min Rain = 0
KMC5 251804Z 35025KT 22/09 A3003 RMK A01 T02150091  RH  045%=      5-min Rain = 0
KMC5 251805Z 36021KT 22/10 A3003 RMK A01 T02150095  RH  046%=      5-min Rain = 0
KMC5 251806Z 35024KT 22/09 A3003 RMK A01 T02170092  RH  045%=      5-min Rain = 0
KMC5 251807Z 36023KT 22/09 A3003 RMK A01 T02160091  RH  045%=      5-min Rain = 0
KMC5 251808Z 35024KT 22/09 A3002 RMK A01 T02150090  RH  045%=      5-min Rain = 0
KMC5 251809Z 35026KT 22/09 A3003 RMK A01 T02150091  RH  045%=      5-min Rain = 0
KMC5 251810Z 00023KT 22/09 A3002 RMK A01 T02160092  RH  045%=      5-min Rain = 0
KMC5 251811Z 00028KT 22/09 A3002 RMK A01 T02170091  RH  044%=      5-min Rain = 0
KMC5 251812Z 36025KT 22/09 A3002 RMK A01 T02150090  RH  045%=      5-min Rain = 0
KMC5 251813Z 00025KT 22/09 A3002 RMK A01 T02150091  RH  045%=      5-min Rain = 0
KMC5 251814Z 00021KT 21/09 A3003 RMK A01 T02140090  RH  045%=      5-min Rain = 0
KMC5 251815Z 35022KT 21/09 A3003 RMK A01 T02130092  RH  046%=      5-min Rain = 0
KMC5 251816Z 35023KT 21/09 A3003 RMK A01 T02130094  RH  046%=      5-min Rain = 0
KMC5 251817Z 34025KT 21/10 A3003 RMK A01 T02140095  RH  047%=      5-min Rain = 0
KMC5 251818Z 34023G28KT 21/10 A3003 RMK A01 T02140096  RH  047%=      5-min Rain = 0
KMC5 251819Z 34022G27KT 22/10 A3003 RMK A01 T02150097  RH  047%=      5-min Rain = 0
KMC5 251820Z 34022G28KT 22/10 A3003 RMK A01 T02170098  RH  047%=      5-min Rain = 0
KMC5 251821Z 35024KT 22/10 A3003 RMK A01 T02180096  RH  046%=      5-min Rain = 0
KMC5 251822Z 36024G30KT 22/10 A3003 RMK A01 T02170096  RH  046%=      5-min Rain = 0
KMC5 251823Z 35024KT 22/09 A3003 RMK A01 T02170094  RH  045%=      5-min Rain = 0
KMC5 251824Z 36019G24KT 22/10 A3003 RMK A01 T02150096  RH  047%=      5-min Rain = 0
KMC5 251825Z 36019G24KT 22/10 A3003 RMK A01 T02160096  RH  046%=      5-min Rain = 0
KMC5 251826Z 36022G29KT 22/10 A3003 RMK A01 T02170097  RH  046%=      5-min Rain = 0
KMC5 251827Z 35027KT 22/10 A3003 RMK A01 T02170096  RH  046%=      5-min Rain = 0
KMC5 251828Z 35026KT 22/10 A3004 RMK A01 T02160097  RH  046%=      5-min Rain = 0
KMC5 251829Z 35023KT 22/10 A3003 RMK A01 T02150097  RH  047%=      5-min Rain = 0
KMC5 251830Z 00020KT 22/10 A3004 RMK A01 T02150098  RH  047%=      5-min Rain = 0
KMC5 251831Z 00022KT 22/09 A3003 RMK A01 T02180094  RH  045%=      5-min Rain = 0
KMC5 251832Z 01023G29KT 22/09 A3003 RMK A01 T02190091  RH  044%=      5-min Rain = 0
KMC5 251833Z 00023G30KT 22/09 A3003 RMK A01 T02180093  RH  045%=      5-min Rain = 0
KMC5 251834Z 01028G34KT 22/09 A3003 RMK A01 T02200088  RH  043%=      5-min Rain = 0
KMC5 251835Z 01026KT 22/09 A3003 RMK A01 T02190085  RH  042%=      5-min Rain = 0
KMC5 251836Z 36026G32KT 22/08 A3004 RMK A01 T02170082  RH  042%=      5-min Rain = 0
KMC5 251837Z 36025G31KT 22/08 A3004 RMK A01 T02160082  RH  042%=      5-min Rain = 0
KMC5 251838Z 36026KT 22/08 A3004 RMK A01 T02180084  RH  042%=      5-min Rain = 0
KMC5 251839Z 36024G29KT 22/08 A3004 RMK A01 T02180082  RH  042%=      5-min Rain = 0
KMC5 251840Z 35025KT 22/08 A3004 RMK A01 T02180080  RH  041%=      5-min Rain = 0
KMC5 251841Z 35027KT 22/08 A3004 RMK A01 T02180080  RH  041%=      5-min Rain = 0
KMC5 251842Z 35027G33KT 22/08 A3004 RMK A01 T02150082  RH  042%=      5-min Rain = 0
KMC5 251843Z 01024KT 22/08 A3004 RMK A01 T02160083  RH  043%=      5-min Rain = 0
KMC5 251844Z 01022G28KT 22/08 A3004 RMK A01 T02180083  RH  042%=      5-min Rain = 0
KMC5 251845Z 36026KT 22/09 A3004 RMK A01 T02200085  RH  042%=      5-min Rain = 0
KMC5 251846Z 00024KT 22/09 A3004 RMK A01 T02200085  RH  042%=      5-min Rain = 0
KMC5 251847Z 01023KT 22/08 A3003 RMK A01 T02220083  RH  041%=      5-min Rain = 0
KMC5 251848Z 01027KT 22/08 A3003 RMK A01 T02220084  RH  041%=      5-min Rain = 0
KMC5 251849Z 01029KT 22/08 A3003 RMK A01 T02220081  RH  040%=      5-min Rain = 0
KMC5 251850Z 01027G32KT 22/08 A3003 RMK A01 T02200082  RH  041%=      5-min Rain = 0
KMC5 251851Z 02028G33KT 22/08 A3003 RMK A01 T02190081  RH  041%=      5-min Rain = 0
KMC5 251852Z 01024KT 22/08 A3003 RMK A01 T02170084  RH  042%=      5-min Rain = 0
KMC5 251853Z 01026KT 22/08 A3003 RMK A01 T02190083  RH  042%=      5-min Rain = 0
KMC5 251854Z 01025KT 22/08 A3003 RMK A01 T02190082  RH  041%=      5-min Rain = 0
KMC5 251855Z 01027G33KT 22/08 A3003 RMK A01 T02160082  RH  042%=      5-min Rain = 0
KMC5 251856Z 36027G34KT 22/08 A3003 RMK A01 T02160083  RH  042%=      5-min Rain = 0
KMC5 251857Z 01027KT 22/09 A3003 RMK A01 T02170085  RH  043%=      5-min Rain = 0
KMC5 251858Z 01021G26KT 22/09 A3004 RMK A01 T02170086  RH  043%=      5-min Rain = 0
KMC5 251859Z 00023G28KT 22/09 A3004 RMK A01 T02190089  RH  043%=      5-min Rain = 0
KMC5 251900Z 35020KT 22/09 A3004 RMK A01 T02200090  RH  043%=      5-min Rain = 0
KMC5 251901Z 01023G28KT 22/09 A3004 RMK A01 T02230091  RH  043%=      5-min Rain = 0
KMC5 251902Z 01026KT 23/09 A3003 RMK A01 T02250089  RH  042%=      5-min Rain = 0
KMC5 251903Z 01021G28KT 22/09 A3003 RMK A01 T02220089  RH  042%=      5-min Rain = 0
KMC5 251904Z 00024KT 22/09 A3003 RMK A01 T02240091  RH  043%=      5-min Rain = 0
KMC5 251905Z 36023KT 23/09 A3004 RMK A01 T02280088  RH  041%=      5-min Rain = 0
KMC5 251906Z 36025G31KT 23/08 A3003 RMK A01 T02270083  RH  040%=      5-min Rain = 0
KMC5 251907Z 01028KT 22/08 A3003 RMK A01 T02240082  RH  040%=      5-min Rain = 0
KMC5 251908Z 35027KT 22/08 A3003 RMK A01 T02210082  RH  041%=      5-min Rain = 0
KMC5 251909Z 35022KT 22/09 A3003 RMK A01 T02220086  RH  042%=      5-min Rain = 0
KMC5 251910Z 36020KT 23/09 A3003 RMK A01 T02250088  RH  041%=      5-min Rain = 0
KMC5 251911Z 01024KT 23/09 A3003 RMK A01 T02270090  RH  042%=      5-min Rain = 0
KMC5 251912Z 01030KT 23/08 A3003 RMK A01 T02290084  RH  040%=      5-min Rain = 0
KMC5 251913Z 01029KT 22/08 A3003 RMK A01 T02240078  RH  039%=      5-min Rain = 0
KMC5 251914Z 02025G31KT 22/08 A3003 RMK A01 T02210082  RH  041%=      5-min Rain = 0
KMC5 251915Z 01028KT 22/08 A3003 RMK A01 T02220084  RH  041%=      5-min Rain = 0
KMC5 251916Z 02025KT 22/09 A3003 RMK A01 T02230086  RH  041%=      5-min Rain = 0
KMC5 251917Z 01021KT 22/09 A3003 RMK A01 T02220086  RH  042%=      5-min Rain = 0
KMC5 251918Z 02023G30KT 22/09 A3003 RMK A01 T02230090  RH  043%=      5-min Rain = 0
KMC5 251919Z 01028KT 23/09 A3003 RMK A01 T02270085  RH  040%=      5-min Rain = 0
KMC5 251920Z 01024G30KT 23/08 A3004 RMK A01 T02260082  RH  040%=      5-min Rain = 0
KMC5 251921Z 00024KT 22/08 A3004 RMK A01 T02240084  RH  041%=      5-min Rain = 0
KMC5 251922Z 01024KT 22/08 A3004 RMK A01 T02240084  RH  041%=      5-min Rain = 0
KMC5 251923Z 01023KT 22/09 A3004 RMK A01 T02240086  RH  041%=      5-min Rain = 0
KMC5 251924Z 01022KT 23/09 A3004 RMK A01 T02250088  RH  041%=      5-min Rain = 0
KMC5 251925Z 01021G27KT 23/09 A3004 RMK A01 T02250090  RH  042%=      5-min Rain = 0
KMC5 251926Z 00020G25KT 23/09 A3004 RMK A01 T02260092  RH  042%=      5-min Rain = 0
KMC5 251927Z 01022KT 23/09 A3004 RMK A01 T02300091  RH  041%=      5-min Rain = 0
KMC5 251928Z 00027G32KT 23/09 A3004 RMK A01 T02300089  RH  041%=      5-min Rain = 0
KMC5 251929Z 01027KT 23/09 A3004 RMK A01 T02270085  RH  040%=      5-min Rain = 0
KMC5 251930Z 01026KT 23/08 A3004 RMK A01 T02250083  RH  040%=      5-min Rain = 0
KMC5 251931Z 02023KT 22/09 A3004 RMK A01 T02230085  RH  041%=      5-min Rain = 0
KMC5 251932Z 00023KT 22/09 A3004 RMK A01 T02230085  RH  041%=      5-min Rain = 0
KMC5 251933Z 01019KT 22/09 A3004 RMK A01 T02240088  RH  042%=      5-min Rain = 0
KMC5 251934Z 01021KT 23/09 A3004 RMK A01 T02270088  RH  041%=      5-min Rain = 0
KMC5 251935Z 36023KT 23/09 A3005 RMK A01 T02270089  RH  041%=      5-min Rain = 0
KMC5 251936Z 36027KT 23/09 A3005 RMK A01 T02300087  RH  040%=      5-min Rain = 0
KMC5 251937Z 36027KT 23/09 A3005 RMK A01 T02270086  RH  040%=      5-min Rain = 0
KMC5 251938Z 36025KT 23/09 A3005 RMK A01 T02260087  RH  041%=      5-min Rain = 0
KMC5 251939Z 00020KT 23/09 A3005 RMK A01 T02260087  RH  041%=      5-min Rain = 0
KMC5 251940Z 00024KT 23/09 A3005 RMK A01 T02270087  RH  041%=      5-min Rain = 0
KMC5 251941Z 01023G28KT 23/09 A3005 RMK A01 T02270089  RH  041%=      5-min Rain = 0
KMC5 251942Z 01027G32KT 23/09 A3005 RMK A01 T02270087  RH  041%=      5-min Rain = 0
KMC5 251943Z 00021KT 22/09 A3005 RMK A01 T02240086  RH  041%=      5-min Rain = 0
KMC5 251944Z 00021G29KT 23/09 A3005 RMK A01 T02260088  RH  041%=      5-min Rain = 0
KMC5 251945Z 36023KT 23/08 A3005 RMK A01 T02280083  RH  039%=      5-min Rain = 0
KMC5 251946Z 35026G32KT 23/08 A3005 RMK A01 T02270083  RH  039%=      5-min Rain = 0
KMC5 251947Z 35021G26KT 23/09 A3005 RMK A01 T02260085  RH  041%=      5-min Rain = 0
KMC5 251948Z 35022KT 23/09 A3005 RMK A01 T02260087  RH  041%=      5-min Rain = 0
KMC5 251949Z 35021KT 23/09 A3005 RMK A01 T02270087  RH  041%=      5-min Rain = 0
KMC5 251950Z 01019G24KT 23/09 A3005 RMK A01 T02270087  RH  041%=      5-min Rain = 0
KMC5 251951Z 00026KT 23/09 A3005 RMK A01 T02280086  RH  040%=      5-min Rain = 0
KMC5 251952Z 01025G30KT 23/08 A3005 RMK A01 T02280082  RH  039%=      5-min Rain = 0
KMC5 251953Z 01023KT 23/08 A3005 RMK A01 T02250084  RH  040%=      5-min Rain = 0
KMC5 251954Z 02025KT 23/08 A3005 RMK A01 T02260083  RH  040%=      5-min Rain = 0
KMC5 251955Z 01020G25KT 23/09 A3005 RMK A01 T02270089  RH  041%=      5-min Rain = 0
KMC5 251956Z 00026KT 23/09 A3006 RMK A01 T02310088  RH  040%=      5-min Rain = 0
KMC5 251957Z 36021KT 23/09 A3006 RMK A01 T02290085  RH  040%=      5-min Rain = 0
KMC5 251958Z 01023KT 23/09 A3006 RMK A01 T02250087  RH  041%=      5-min Rain = 0
KMC5 251959Z 01021G26KT 22/09 A3006 RMK A01 T02240087  RH  041%=      5-min Rain = 0
KMC5 252000Z 01019KT 23/09 A3006 RMK A01 T02260091  RH  042%=      5-min Rain = 0
KMC5 252001Z 02020KT 23/09 A3006 RMK A01 T02270087  RH  041%=      5-min Rain = 0
KMC5 252002Z 02025KT 23/09 A3005 RMK A01 T02270089  RH  041%=      5-min Rain = 0
KMC5 252003Z 01027KT 23/09 A3006 RMK A01 T02280088  RH  041%=      5-min Rain = 0
KMC5 252004Z 00022KT 23/08 A3006 RMK A01 T02260084  RH  040%=      5-min Rain = 0
KMC5 252005Z 00020KT 22/09 A3006 RMK A01 T02240085  RH  041%=      5-min Rain = 0
KMC5 252006Z 01021G27KT 23/09 A3006 RMK A01 T02270089  RH  041%=      5-min Rain = 0
KMC5 252007Z 01022KT 23/09 A3006 RMK A01 T02290086  RH  040%=      5-min Rain = 0
KMC5 252008Z 01021KT 23/09 A3006 RMK A01 T02280085  RH  040%=      5-min Rain = 0
KMC5 252009Z 01022KT 23/09 A3006 RMK A01 T02260086  RH  041%=      5-min Rain = 0
KMC5 252010Z 02023G28KT 23/09 A3006 RMK A01 T02270086  RH  041%=      5-min Rain = 0
KMC5 252011Z 01028KT 23/08 A3005 RMK A01 T02280083  RH  040%=      5-min Rain = 0
KMC5 252012Z 01026KT 23/08 A3006 RMK A01 T02260084  RH  040%=      5-min Rain = 0
KMC5 252013Z 36021KT 23/09 A3006 RMK A01 T02260085  RH  040%=      5-min Rain = 0
KMC5 252014Z 02018G24KT 23/09 A3006 RMK A01 T02250088  RH  041%=      5-min Rain = 0
KMC5 252015Z 02023G31KT 23/09 A3006 RMK A01 T02290089  RH  041%=      5-min Rain = 0
KMC5 252016Z 01025KT 23/09 A3006 RMK A01 T02300085  RH  039%=      5-min Rain = 0
KMC5 252017Z 01024G29KT 23/09 A3006 RMK A01 T02260085  RH  040%=      5-min Rain = 0
KMC5 252018Z 00020KT 23/09 A3006 RMK A01 T02250086  RH  041%=      5-min Rain = 0
KMC5 252019Z 00023G28KT 23/09 A3006 RMK A01 T02250088  RH  042%=      5-min Rain = 0
KMC5 252020Z 01022KT 23/09 A3006 RMK A01 T02260089  RH  041%=      5-min Rain = 0
KMC5 252021Z 01020KT 23/09 A3006 RMK A01 T02280089  RH  041%=      5-min Rain = 0
KMC5 252022Z 02022KT 23/09 A3006 RMK A01 T02260088  RH  041%=      5-min Rain = 0
KMC5 252023Z 36023G29KT 23/09 A3006 RMK A01 T02290088  RH  040%=      5-min Rain = 0
KMC5 252024Z 35021G27KT 23/09 A3006 RMK A01 T02310086  RH  039%=      5-min Rain = 0
KMC5 252025Z 36023KT 23/09 A3006 RMK A01 T02320085  RH  039%=      5-min Rain = 0
KMC5 252026Z 00021KT 23/09 A3006 RMK A01 T02310085  RH  039%=      5-min Rain = 0
KMC5 252027Z 00019KT 23/08 A3006 RMK A01 T02280084  RH  040%=      5-min Rain = 0
KMC5 252028Z 02024KT 23/09 A3005 RMK A01 T02280086  RH  040%=      5-min Rain = 0
KMC5 252029Z 03024KT 23/08 A3005 RMK A01 T02290084  RH  040%=      5-min Rain = 0
KMC5 252030Z 02024KT 23/09 A3005 RMK A01 T02290085  RH  040%=      5-min Rain = 0
KMC5 252031Z 02023G28KT 23/08 A3005 RMK A01 T02270083  RH  040%=      5-min Rain = 0
KMC5 252032Z 02024G29KT 23/09 A3005 RMK A01 T02250086  RH  041%=      5-min Rain = 0
KMC5 252033Z 02021G28KT 22/09 A3005 RMK A01 T02240087  RH  041%=      5-min Rain = 0
KMC5 252034Z 02020KT 22/09 A3005 RMK A01 T02230086  RH  041%=      5-min Rain = 0
KMC5 252035Z 02022KT 22/09 A3006 RMK A01 T02240088  RH  042%=      5-min Rain = 0
KMC5 252036Z 01018G23KT 23/09 A3006 RMK A01 T02250088  RH  041%=      5-min Rain = 0
KMC5 252037Z 02017KT 23/09 A3006 RMK A01 T02300093  RH  042%=      5-min Rain = 0
KMC5 252038Z 36018G23KT 23/09 A3006 RMK A01 T02340089  RH  040%=      5-min Rain = 0
KMC5 252039Z 35019KT 23/09 A3006 RMK A01 T02330087  RH  039%=      5-min Rain = 0
KMC5 252040Z 36021G28KT 23/09 A3006 RMK A01 T02310085  RH  039%=      5-min Rain = 0
KMC5 252041Z 02023G28KT 23/08 A3006 RMK A01 T02310084  RH  039%=      5-min Rain = 0
KMC5 252042Z 01022KT 23/09 A3006 RMK A01 T02300086  RH  040%=      5-min Rain = 0
KMC5 252043Z 00023KT 23/08 A3007 RMK A01 T02300084  RH  039%=      5-min Rain = 0
KMC5 252044Z 00018KT 23/08 A3007 RMK A01 T02270082  RH  040%=      5-min Rain = 0
KMC5 252045Z 36019G26KT 23/09 A3007 RMK A01 T02260088  RH  041%=      5-min Rain = 0
KMC5 252046Z 35024KT 23/09 A3006 RMK A01 T02290088  RH  041%=      5-min Rain = 0
KMC5 252047Z 00021KT 23/09 A3007 RMK A01 T02280086  RH  040%=      5-min Rain = 0
KMC5 252048Z 01024KT 23/09 A3006 RMK A01 T02260088  RH  041%=      5-min Rain = 0
KMC5 252049Z 01021KT 23/09 A3007 RMK A01 T02250086  RH  041%=      5-min Rain = 0
KMC5 252050Z 02021G27KT 22/09 A3006 RMK A01 T02230088  RH  042%=      5-min Rain = 0
KMC5 252051Z 02019G24KT 22/09 A3006 RMK A01 T02240088  RH  042%=      5-min Rain = 0
KMC5 252052Z 01022G31KT 23/09 A3006 RMK A01 T02280092  RH  042%=      5-min Rain = 0
KMC5 252053Z 36026KT 23/09 A3007 RMK A01 T02320088  RH  040%=      5-min Rain = 0
KMC5 252054Z 36025KT 23/09 A3006 RMK A01 T02300085  RH  040%=      5-min Rain = 0
KMC5 252055Z 01021G26KT 23/08 A3007 RMK A01 T02270084  RH  040%=      5-min Rain = 0
KMC5 252056Z 36022G27KT 23/08 A3007 RMK A01 T02260083  RH  040%=      5-min Rain = 0
KMC5 252057Z 35025KT 23/08 A3007 RMK A01 T02260079  RH  039%=      5-min Rain = 0
KMC5 252058Z 36022KT 23/08 A3007 RMK A01 T02260079  RH  039%=      5-min Rain = 0
KMC5 252059Z 36024KT 23/08 A3007 RMK A01 T02260082  RH  040%=      5-min Rain = 0
KMC5 252100Z 36024KT 23/08 A3007 RMK A01 T02280083  RH  039%=      5-min Rain = 0
KMC5 252101Z 00024KT 23/08 A3007 RMK A01 T02270080  RH  039%=      5-min Rain = 0
KMC5 252102Z 35020KT 23/08 A3007 RMK A01 T02250080  RH  039%=      5-min Rain = 0
KMC5 252103Z 36017KT 22/08 A3007 RMK A01 T02240084  RH  041%=      5-min Rain = 0
KMC5 252104Z 00021G26KT 23/08 A3007 RMK A01 T02290084  RH  039%=      5-min Rain = 0
KMC5 252105Z 01023KT 23/08 A3007 RMK A01 T02320082  RH  038%=      5-min Rain = 0
KMC5 252106Z 01023KT 23/08 A3007 RMK A01 T02320082  RH  038%=      5-min Rain = 0
KMC5 252107Z 02022KT 23/08 A3007 RMK A01 T02290083  RH  039%=      5-min Rain = 0
KMC5 252108Z 01023G29KT 23/08 A3007 RMK A01 T02260084  RH  040%=      5-min Rain = 0
KMC5 252109Z 02023KT 23/08 A3007 RMK A01 T02250083  RH  040%=      5-min Rain = 0
KMC5 252110Z 01021KT 23/09 A3007 RMK A01 T02250085  RH  041%=      5-min Rain = 0
KMC5 252111Z 01023G28KT 23/08 A3007 RMK A01 T02260080  RH  039%=      5-min Rain = 0
KMC5 252112Z 01021KT 23/08 A3007 RMK A01 T02250079  RH  039%=      5-min Rain = 0
KMC5 252113Z 01020G26KT 23/08 A3007 RMK A01 T02250081  RH  040%=      5-min Rain = 0
KMC5 252114Z 00024G29KT 23/08 A3007 RMK A01 T02270082  RH  039%=      5-min Rain = 0
KMC5 252115Z 00024KT 23/08 A3007 RMK A01 T02280077  RH  038%=      5-min Rain = 0
KMC5 252116Z 00019KT 23/07 A3007 RMK A01 T02250072  RH  037%=      5-min Rain = 0
KMC5 252117Z 01022KT 22/07 A3007 RMK A01 T02230073  RH  038%=      5-min Rain = 0
KMC5 252118Z 01025KT 22/07 A3007 RMK A01 T02230074  RH  038%=      5-min Rain = 0
KMC5 252119Z 01022KT 22/08 A3007 RMK A01 T02230080  RH  040%=      5-min Rain = 0
KMC5 252120Z 01020G26KT 22/08 A3007 RMK A01 T02220082  RH  041%=      5-min Rain = 0
KMC5 252121Z 00023KT 22/08 A3007 RMK A01 T02220084  RH  041%=      5-min Rain = 0
KMC5 252122Z 00021KT 22/08 A3007 RMK A01 T02240082  RH  040%=      5-min Rain = 0
KMC5 252123Z 36020KT 22/08 A3007 RMK A01 T02230080  RH  040%=      5-min Rain = 0
KMC5 252124Z 00022G30KT 22/08 A3007 RMK A01 T02220082  RH  041%=      5-min Rain = 0
KMC5 252125Z 01024KT 22/08 A3007 RMK A01 T02230077  RH  039%=      5-min Rain = 0
KMC5 252126Z 01022KT 22/08 A3007 RMK A01 T02210077  RH  039%=      5-min Rain = 0
KMC5 252127Z 01022KT 22/08 A3007 RMK A01 T02220077  RH  039%=      5-min Rain = 0
KMC5 252128Z 00019KT 23/08 A3007 RMK A01 T02260078  RH  039%=      5-min Rain = 0
KMC5 252129Z 01023G29KT 23/08 A3007 RMK A01 T02290077  RH  038%=      5-min Rain = 0
KMC5 252130Z 01021G27KT 23/08 A3007 RMK A01 T02260076  RH  038%=      5-min Rain = 0
KMC5 252131Z 01022KT 23/08 A3007 RMK A01 T02250077  RH  038%=      5-min Rain = 0
KMC5 252132Z 00020KT 23/07 A3007 RMK A01 T02250073  RH  038%=      5-min Rain = 0
KMC5 252133Z 36024G29KT 22/07 A3007 RMK A01 T02240073  RH  038%=      5-min Rain = 0
KMC5 252134Z 35022G27KT 22/07 A3007 RMK A01 T02210071  RH  038%=      5-min Rain = 0
KMC5 252135Z 35022KT 22/07 A3007 RMK A01 T02190070  RH  038%=      5-min Rain = 0
KMC5 252136Z 00024G29KT 22/07 A3007 RMK A01 T02200070  RH  038%=      5-min Rain = 0
KMC5 252137Z 00024G31KT 22/07 A3007 RMK A01 T02210068  RH  037%=      5-min Rain = 0
KMC5 252138Z 00026KT 22/07 A3008 RMK A01 T02220068  RH  037%=      5-min Rain = 0
KMC5 252139Z 36025KT 22/07 A3008 RMK A01 T02200069  RH  038%=      5-min Rain = 0
KMC5 252140Z 36022KT 22/07 A3008 RMK A01 T02180069  RH  038%=      5-min Rain = 0
KMC5 252141Z 36019KT 22/07 A3008 RMK A01 T02180069  RH  038%=      5-min Rain = 0
KMC5 252142Z 00020KT 22/07 A3008 RMK A01 T02170068  RH  038%=      5-min Rain = 0
KMC5 252143Z 01019KT 22/07 A3007 RMK A01 T02170065  RH  037%=      5-min Rain = 0
KMC5 252144Z 36024KT 22/06 A3008 RMK A01 T02200058  RH  035%=      5-min Rain = 0
KMC5 252145Z 00022G28KT 22/06 A3008 RMK A01 T02200056  RH  035%=      5-min Rain = 0
KMC5 252146Z 36023KT 22/06 A3008 RMK A01 T02190060  RH  036%=      5-min Rain = 0
KMC5 252147Z 01020KT 22/06 A3008 RMK A01 T02170063  RH  037%=      5-min Rain = 0
KMC5 252148Z 01021KT 22/07 A3008 RMK A01 T02170068  RH  038%=      5-min Rain = 0
KMC5 252149Z 01023KT 22/07 A3008 RMK A01 T02190069  RH  038%=      5-min Rain = 0
KMC5 252150Z 00021KT 22/07 A3008 RMK A01 T02200068  RH  037%=      5-min Rain = 0
KMC5 252151Z 00020KT 22/07 A3008 RMK A01 T02190069  RH  038%=      5-min Rain = 0
KMC5 252152Z 01021KT 22/07 A3008 RMK A01 T02180069  RH  038%=      5-min Rain = 0
KMC5 252153Z 01018KT 22/07 A3008 RMK A01 T02150068  RH  038%=      5-min Rain = 0
KMC5 252154Z 01018KT 22/07 A3008 RMK A01 T02150071  RH  039%=      5-min Rain = 0
KMC5 252155Z 01022G27KT 22/07 A3008 RMK A01 T02170070  RH  038%=      5-min Rain = 0
KMC5 252156Z 01024KT 22/07 A3008 RMK A01 T02170069  RH  038%=      5-min Rain = 0
KMC5 252157Z 01022KT 22/07 A3008 RMK A01 T02160067  RH  038%=      5-min Rain = 0
KMC5 252158Z 02021G26KT 22/07 A3008 RMK A01 T02150069  RH  039%=      5-min Rain = 0
KMC5 252159Z 02022KT 22/06 A3008 RMK A01 T02160064  RH  037%=      5-min Rain = 0
KMC5 252200Z 01017KT 21/06 A3008 RMK A01 T02140063  RH  037%=      5-min Rain = 0
KMC5 252201Z 01018KT 22/06 A3008 RMK A01 T02160061  RH  036%=      5-min Rain = 0
KMC5 252202Z 00020G25KT 22/06 A3008 RMK A01 T02190064  RH  036%=      5-min Rain = 0
KMC5 252203Z 36019G25KT 22/06 A3008 RMK A01 T02210061  RH  035%=      5-min Rain = 0
KMC5 252204Z 35019KT 22/06 A3008 RMK A01 T02190063  RH  036%=      5-min Rain = 0
KMC5 252205Z 35020KT 22/07 A3008 RMK A01 T02170066  RH  037%=      5-min Rain = 0
KMC5 252206Z 01021KT 22/07 A3008 RMK A01 T02160069  RH  039%=      5-min Rain = 0
KMC5 252207Z 01018KT 22/07 A3008 RMK A01 T02160067  RH  038%=      5-min Rain = 0
KMC5 252208Z 35018G23KT 22/07 A3008 RMK A01 T02160068  RH  038%=      5-min Rain = 0
KMC5 252209Z 36018KT 22/07 A3008 RMK A01 T02180066  RH  037%=      5-min Rain = 0
KMC5 252210Z 35019KT 22/06 A3008 RMK A01 T02190063  RH  036%=      5-min Rain = 0
KMC5 252211Z 36022G27KT 22/06 A3008 RMK A01 T02180062  RH  036%=      5-min Rain = 0
KMC5 252212Z 02022KT 22/06 A3008 RMK A01 T02170062  RH  036%=      5-min Rain = 0
KMC5 252213Z 01021KT 22/06 A3008 RMK A01 T02180059  RH  036%=      5-min Rain = 0
KMC5 252214Z 00018KT 22/06 A3008 RMK A01 T02170059  RH  036%=      5-min Rain = 0
KMC5 252215Z 01020KT 22/06 A3008 RMK A01 T02170059  RH  036%=      5-min Rain = 0
KMC5 252216Z 01020KT 22/06 A3008 RMK A01 T02180058  RH  035%=      5-min Rain = 0
KMC5 252217Z 01020KT 22/06 A3008 RMK A01 T02170056  RH  035%=      5-min Rain = 0
KMC5 252218Z 00021KT 22/06 A3009 RMK A01 T02160059  RH  036%=      5-min Rain = 0
KMC5 252219Z 01019KT 22/06 A3009 RMK A01 T02170061  RH  036%=      5-min Rain = 0
KMC5 252220Z 02019KT 22/06 A3009 RMK A01 T02180060  RH  036%=      5-min Rain = 0
KMC5 252221Z 02022KT 22/06 A3008 RMK A01 T02160058  RH  036%=      5-min Rain = 0
KMC5 252222Z 02022KT 22/06 A3008 RMK A01 T02150057  RH  036%=      5-min Rain = 0
KMC5 252223Z 01022KT 22/05 A3008 RMK A01 T02160053  RH  034%=      5-min Rain = 0
KMC5 252224Z 01024KT 22/05 A3009 RMK A01 T02170052  RH  034%=      5-min Rain = 0
KMC5 252225Z 36024KT 22/06 A3009 RMK A01 T02170056  RH  035%=      5-min Rain = 0
KMC5 252226Z 36021KT 22/05 A3009 RMK A01 T02160053  RH  035%=      5-min Rain = 0
KMC5 252227Z 36023KT 22/06 A3009 RMK A01 T02160055  RH  035%=      5-min Rain = 0
KMC5 252228Z 36022KT 22/06 A3009 RMK A01 T02160055  RH  035%=      5-min Rain = 0
KMC5 252229Z 00020KT 22/06 A3009 RMK A01 T02160057  RH  035%=      5-min Rain = 0
KMC5 252230Z 01018KT 22/06 A3009 RMK A01 T02150057  RH  036%=      5-min Rain = 0
KMC5 252231Z 02018KT 22/06 A3009 RMK A01 T02150060  RH  036%=      5-min Rain = 0
KMC5 252232Z 01019KT 22/06 A3009 RMK A01 T02160057  RH  035%=      5-min Rain = 0
KMC5 252233Z 35021KT 22/05 A3009 RMK A01 T02160052  RH  034%=      5-min Rain = 0
KMC5 252234Z 35020G25KT 22/05 A3009 RMK A01 T02170054  RH  034%=      5-min Rain = 0
KMC5 252235Z 36021KT 22/05 A3009 RMK A01 T02180054  RH  034%=      5-min Rain = 0
KMC5 252236Z 00020KT 22/06 A3009 RMK A01 T02190057  RH  035%=      5-min Rain = 0
KMC5 252237Z 36020G28KT 22/06 A3009 RMK A01 T02190060  RH  036%=      5-min Rain = 0
KMC5 252238Z 36019G24KT 22/06 A3009 RMK A01 T02200058  RH  035%=      5-min Rain = 0
KMC5 252239Z 01022KT 22/06 A3009 RMK A01 T02190061  RH  036%=      5-min Rain = 0
KMC5 252240Z 00020KT 22/06 A3009 RMK A01 T02190058  RH  035%=      5-min Rain = 0
KMC5 252241Z 00019KT 22/06 A3009 RMK A01 T02170059  RH  036%=      5-min Rain = 0
KMC5 252242Z 36016KT 22/06 A3009 RMK A01 T02170059  RH  036%=      5-min Rain = 0
KMC5 252243Z 00015KT 22/06 A3009 RMK A01 T02180061  RH  036%=      5-min Rain = 0
KMC5 252244Z 01018KT 22/06 A3009 RMK A01 T02190060  RH  036%=      5-min Rain = 0
KMC5 252245Z 35018KT 22/06 A3009 RMK A01 T02190060  RH  036%=      5-min Rain = 0
KMC5 252246Z 36017KT 22/06 A3009 RMK A01 T02190059  RH  035%=      5-min Rain = 0
KMC5 252247Z 00017KT 22/06 A3009 RMK A01 T02190061  RH  036%=      5-min Rain = 0
KMC5 252248Z 00016KT 22/06 A3009 RMK A01 T02200059  RH  035%=      5-min Rain = 0
KMC5 252249Z 01017KT 22/06 A3009 RMK A01 T02200063  RH  036%=      5-min Rain = 0
KMC5 252250Z 03020KT 22/06 A3009 RMK A01 T02200062  RH  036%=      5-min Rain = 0
KMC5 252251Z 01021KT 22/06 A3009 RMK A01 T02190061  RH  036%=      5-min Rain = 0
KMC5 252252Z 01022KT 22/06 A3009 RMK A01 T02180056  RH  035%=      5-min Rain = 0
KMC5 252253Z 01024G29KT 22/05 A3009 RMK A01 T02180050  RH  034%=      5-min Rain = 0
KMC5 252254Z 01020KT 22/05 A3009 RMK A01 T02160051  RH  034%=      5-min Rain = 0
KMC5 252255Z 01020KT 22/05 A301 RMK A01 T02160051  RH  034%=      5-min Rain = 0
KMC5 252256Z 01016KT 22/05 A301 RMK A01 T02170053  RH  034%=      5-min Rain = 0
KMC5 252257Z 02016G21KT 22/06 A301 RMK A01 T02180056  RH  035%=      5-min Rain = 0
KMC5 252258Z 01019KT 22/05 A301 RMK A01 T02180053  RH  034%=      5-min Rain = 0
KMC5 252259Z 00018G24KT 22/05 A301 RMK A01 T02160054  RH  035%=      5-min Rain = 0
KMC5 252300Z 01019KT 22/05 A301 RMK A01 T02160054  RH  035%=      5-min Rain = 0
KMC5 252301Z 36017KT 22/06 A301 RMK A01 T02160055  RH  035%=      5-min Rain = 0
KMC5 252302Z 35019G24KT 22/06 A301 RMK A01 T02170057  RH  035%=      5-min Rain = 0
KMC5 252303Z 36021KT 22/06 A301 RMK A01 T02170057  RH  035%=      5-min Rain = 0
KMC5 252304Z 35017KT 22/06 A301 RMK A01 T02160058  RH  036%=      5-min Rain = 0
KMC5 252305Z 36016KT 22/06 A301 RMK A01 T02150059  RH  036%=      5-min Rain = 0
KMC5 252306Z 00016KT 22/06 A301 RMK A01 T02150060  RH  036%=      5-min Rain = 0
KMC5 252307Z 01016KT 22/06 A301 RMK A01 T02160061  RH  037%=      5-min Rain = 0
KMC5 252308Z 01021KT 22/06 A301 RMK A01 T02180057  RH  035%=      5-min Rain = 0
KMC5 252309Z 01020KT 22/05 A301 RMK A01 T02180053  RH  034%=      5-min Rain = 0
KMC5 252310Z 00020KT 22/05 A301 RMK A01 T02170050  RH  034%=      5-min Rain = 0
KMC5 252311Z 00018KT 22/05 A301 RMK A01 T02160051  RH  034%=      5-min Rain = 0
KMC5 252312Z 00016KT 22/05 A301 RMK A01 T02150051  RH  034%=      5-min Rain = 0
KMC5 252313Z 01016KT 22/06 A301 RMK A01 T02150055  RH  035%=      5-min Rain = 0
KMC5 252314Z 35019G24KT 22/06 A301 RMK A01 T02170055  RH  035%=      5-min Rain = 0
KMC5 252315Z 01019KT 22/06 A301 RMK A01 T02180055  RH  035%=      5-min Rain = 0
KMC5 252316Z 00015KT 22/06 A301 RMK A01 T02170057  RH  035%=      5-min Rain = 0
KMC5 252317Z 36015G21KT 22/06 A301 RMK A01 T02180060  RH  036%=      5-min Rain = 0
KMC5 252318Z 36015KT 22/06 A301 RMK A01 T02190058  RH  035%=      5-min Rain = 0
KMC5 252319Z 01016KT 22/06 A301 RMK A01 T02190060  RH  036%=      5-min Rain = 0
KMC5 252320Z 01015KT 22/06 A301 RMK A01 T02180058  RH  035%=      5-min Rain = 0
KMC5 252321Z 02016KT 22/06 A301 RMK A01 T02170060  RH  036%=      5-min Rain = 0
KMC5 252322Z 02016KT 22/06 A301 RMK A01 T02170063  RH  037%=      5-min Rain = 0
KMC5 252323Z 02013G18KT 22/06 A301 RMK A01 T02170061  RH  036%=      5-min Rain = 0
KMC5 252324Z 02011KT 22/06 A301 RMK A01 T02160064  RH  037%=      5-min Rain = 0
KMC5 252325Z 02014KT 22/07 A301 RMK A01 T02170065  RH  037%=      5-min Rain = 0
KMC5 252326Z 01014KT 22/06 A301 RMK A01 T02170062  RH  036%=      5-min Rain = 0
KMC5 252327Z 01015G21KT 22/06 A301 RMK A01 T02160062  RH  037%=      5-min Rain = 0
KMC5 252328Z 02018KT 22/06 A301 RMK A01 T02170061  RH  036%=      5-min Rain = 0
KMC5 252329Z 01019KT 22/06 A301 RMK A01 T02170062  RH  036%=      5-min Rain = 0
KMC5 252330Z 01017KT 22/06 A301 RMK A01 T02170061  RH  036%=      5-min Rain = 0
KMC5 252331Z 01016KT 22/06 A301 RMK A01 T02150062  RH  037%=      5-min Rain = 0
KMC5 252332Z 01014KT 21/06 A301 RMK A01 T02130062  RH  037%=      5-min Rain = 0
KMC5 252333Z 03018KT 21/06 A301 RMK A01 T02130064  RH  038%=      5-min Rain = 0
KMC5 252334Z 03015KT 21/06 A301 RMK A01 T02130062  RH  037%=      5-min Rain = 0
KMC5 252335Z 02015KT 21/06 A301 RMK A01 T02130063  RH  038%=      5-min Rain = 0
KMC5 252336Z 02017KT 21/06 A301 RMK A01 T02130064  RH  038%=      5-min Rain = 0
KMC5 252337Z 03015KT 21/06 A301 RMK A01 T02130063  RH  038%=      5-min Rain = 0
KMC5 252338Z 03018KT 21/06 A301 RMK A01 T02130062  RH  037%=      5-min Rain = 0
KMC5 252339Z 03020KT 21/06 A301 RMK A01 T02130061  RH  037%=      5-min Rain = 0
KMC5 252340Z 02021KT 21/06 A301 RMK A01 T02140060  RH  037%=      5-min Rain = 0
KMC5 252341Z 02020KT 21/06 A301 RMK A01 T02140059  RH  037%=      5-min Rain = 0
KMC5 252342Z 01018KT 21/06 A301 RMK A01 T02130060  RH  037%=      5-min Rain = 0
KMC5 252343Z 02017KT 21/06 A301 RMK A01 T02130059  RH  037%=      5-min Rain = 0
KMC5 252344Z 02015KT 21/06 A301 RMK A01 T02130058  RH  037%=      5-min Rain = 0
KMC5 252345Z 03015KT 21/06 A301 RMK A01 T02130058  RH  036%=      5-min Rain = 0
KMC5 252346Z 02013KT 21/06 A301 RMK A01 T02130059  RH  037%=      5-min Rain = 0
KMC5 252347Z 02013KT 21/06 A301 RMK A01 T02140059  RH  037%=      5-min Rain = 0
KMC5 252348Z 02014KT 21/06 A301 RMK A01 T02140059  RH  036%=      5-min Rain = 0
KMC5 252349Z 02012KT 21/06 A301 RMK A01 T02140058  RH  036%=      5-min Rain = 0
KMC5 252350Z 02014KT 21/06 A301 RMK A01 T02140055  RH  036%=      5-min Rain = 0
KMC5 252351Z 02012KT 21/06 A301 RMK A01 T02130055  RH  036%=      5-min Rain = 0
KMC5 252352Z 01013G18KT 21/06 A3011 RMK A01 T02130058  RH  036%=      5-min Rain = 0
KMC5 252353Z 02017KT 22/05 A301 RMK A01 T02150054  RH  035%=      5-min Rain = 0
KMC5 252354Z 01016KT 22/05 A3011 RMK A01 T02150052  RH  035%=      5-min Rain = 0
KMC5 252355Z 01015KT 21/05 A3011 RMK A01 T02140052  RH  035%=      5-min Rain = 0
KMC5 252356Z 02013KT 21/05 A3011 RMK A01 T02130052  RH  035%=      5-min Rain = 0
KMC5 252357Z 01011KT 21/05 A3011 RMK A01 T02130054  RH  035%=      5-min Rain = 0
KMC5 252358Z 01012KT 21/06 A3011 RMK A01 T02140056  RH  036%=      5-min Rain = 0
KMC5 252359Z 00014KT 22/06 A3011 RMK A01 T02150055  RH  035%=      5-min Rain = 0
KMC5 260000Z 01014KT 22/05 A3011 RMK A01 T02150054  RH  035%=      5-min Rain = 0
KMC5 260001Z 01012KT 22/06 A3011 RMK A01 T02150056  RH  036%=      5-min Rain = 0
KMC5 260002Z 02014KT 21/06 A3011 RMK A01 T02140055  RH  035%=      5-min Rain = 0
KMC5 260003Z 02015KT 21/05 A3011 RMK A01 T02140053  RH  035%=      5-min Rain = 0
KMC5 260004Z 02015KT 21/05 A3011 RMK A01 T02130054  RH  035%=      5-min Rain = 0
KMC5 260005Z 02016KT 21/05 A3011 RMK A01 T02120051  RH  035%=      5-min Rain = 0
KMC5 260006Z 02015KT 21/05 A3011 RMK A01 T02120052  RH  035%=      5-min Rain = 0
KMC5 260007Z 01015KT 21/05 A3011 RMK A01 T02120052  RH  035%=      5-min Rain = 0
KMC5 260008Z 01015KT 21/05 A3011 RMK A01 T02120051  RH  035%=      5-min Rain = 0
KMC5 260009Z 00013KT 21/05 A3011 RMK A01 T02120048  RH  034%=      5-min Rain = 0
KMC5 260010Z 01013KT 21/05 A3011 RMK A01 T02110049  RH  035%=      5-min Rain = 0
KMC5 260011Z 01013KT 21/05 A3011 RMK A01 T02110048  RH  034%=      5-min Rain = 0
KMC5 260012Z 01012KT 21/05 A3011 RMK A01 T02110050  RH  035%=      5-min Rain = 0
KMC5 260013Z 01012KT 21/05 A3011 RMK A01 T02110049  RH  035%=      5-min Rain = 0
KMC5 260014Z 02013KT 21/05 A3011 RMK A01 T02110052  RH  035%=      5-min Rain = 0
KMC5 260015Z 03016KT 21/05 A3011 RMK A01 T02100051  RH  035%=      5-min Rain = 0
KMC5 260016Z 03015KT 21/05 A3011 RMK A01 T02090050  RH  035%=      5-min Rain = 0
KMC5 260017Z 03015KT 21/05 A3011 RMK A01 T02090050  RH  035%=      5-min Rain = 0
KMC5 260018Z 03012KT 21/05 A3011 RMK A01 T02080051  RH  036%=      5-min Rain = 0
KMC5 260019Z 02012KT 21/05 A3011 RMK A01 T02080053  RH  036%=      5-min Rain = 0
KMC5 260020Z 02013KT 21/05 A3011 RMK A01 T02080052  RH  036%=      5-min Rain = 0
KMC5 260021Z 02012KT 21/05 A3011 RMK A01 T02080053  RH  036%=      5-min Rain = 0
KMC5 260022Z 02012KT 21/05 A3011 RMK A01 T02080053  RH  036%=      5-min Rain = 0
KMC5 260023Z 02011KT 21/05 A3011 RMK A01 T02080054  RH  036%=      5-min Rain = 0
KMC5 260024Z 02013KT 21/05 A3011 RMK A01 T02080053  RH  036%=      5-min Rain = 0
KMC5 260025Z 02014KT 21/05 A3011 RMK A01 T02070051  RH  036%=      5-min Rain = 0
KMC5 260026Z 02014KT 21/05 A3011 RMK A01 T02070052  RH  036%=      5-min Rain = 0
KMC5 260027Z 03012KT 21/05 A3011 RMK A01 T02070053  RH  037%=      5-min Rain = 0
KMC5 260028Z 03014KT 21/05 A3011 RMK A01 T02070052  RH  036%=      5-min Rain = 0
KMC5 260029Z 03016KT 21/05 A3011 RMK A01 T02060049  RH  036%=      5-min Rain = 0
KMC5 260030Z 03013KT 21/05 A3011 RMK A01 T02060050  RH  036%=      5-min Rain = 0
KMC5 260031Z 03014KT 21/05 A3011 RMK A01 T02060052  RH  036%=      5-min Rain = 0
KMC5 260032Z 02012KT 21/05 A3011 RMK A01 T02060051  RH  036%=      5-min Rain = 0
KMC5 260033Z 02012KT 21/05 A3011 RMK A01 T02050052  RH  037%=      5-min Rain = 0
KMC5 260034Z 02010KT 21/05 A3011 RMK A01 T02050054  RH  037%=      5-min Rain = 0
KMC5 260035Z 02011KT 21/06 A3011 RMK A01 T02050056  RH  038%=      5-min Rain = 0
KMC5 260036Z 02012KT 20/05 A3011 RMK A01 T02040054  RH  037%=      5-min Rain = 0
KMC5 260037Z 02012KT 20/06 A3011 RMK A01 T02040055  RH  038%=      5-min Rain = 0
KMC5 260038Z 02012KT 20/05 A3011 RMK A01 T02040054  RH  038%=      5-min Rain = 0
KMC5 260039Z 02014KT 20/05 A3011 RMK A01 T02040052  RH  037%=      5-min Rain = 0
KMC5 260040Z 02015KT 20/05 A3011 RMK A01 T02030052  RH  037%=      5-min Rain = 0
KMC5 260041Z 02012KT 20/05 A3011 RMK A01 T02030052  RH  037%=      5-min Rain = 0
KMC5 260042Z 03013KT 20/05 A3011 RMK A01 T02020053  RH  037%=      5-min Rain = 0
KMC5 260043Z 02012KT 20/05 A3011 RMK A01 T02020053  RH  038%=      5-min Rain = 0
KMC5 260044Z 02012KT 20/06 A3011 RMK A01 T02010055  RH  038%=      5-min Rain = 0
KMC5 260045Z 02013KT 20/05 A3011 RMK A01 T02010053  RH  038%=      5-min Rain = 0
KMC5 260046Z 02011KT 20/05 A3011 RMK A01 T02010054  RH  038%=      5-min Rain = 0
KMC5 260047Z 02010KT 20/05 A3011 RMK A01 T02000054  RH  038%=      5-min Rain = 0
KMC5 260048Z 02011KT 20/05 A3011 RMK A01 T01990054  RH  039%=      5-min Rain = 0
KMC5 260049Z 02012KT 20/05 A3011 RMK A01 T01990053  RH  038%=      5-min Rain = 0
KMC5 260050Z 02014KT 20/05 A3011 RMK A01 T01990049  RH  037%=      5-min Rain = 0
KMC5 260051Z 02013KT 20/05 A3011 RMK A01 T01990048  RH  037%=      5-min Rain = 0
KMC5 260052Z 02013KT 20/05 A3011 RMK A01 T01990049  RH  037%=      5-min Rain = 0
KMC5 260053Z 02013KT 20/05 A3011 RMK A01 T01980049  RH  037%=      5-min Rain = 0
KMC5 260054Z 02012KT 20/05 A3011 RMK A01 T01980050  RH  038%=      5-min Rain = 0
KMC5 260055Z 02010KT 20/05 A3011 RMK A01 T01970050  RH  038%=      5-min Rain = 0
KMC5 260056Z 02011KT 20/05 A3011 RMK A01 T01960051  RH  039%=      5-min Rain = 0
KMC5 260057Z 02011KT 20/05 A3011 RMK A01 T01950050  RH  039%=      5-min Rain = 0
KMC5 260058Z 02010KT 20/05 A3011 RMK A01 T01950052  RH  039%=      5-min Rain = 0
KMC5 260059Z 02010KT 19/05 A3011 RMK A01 T01940053  RH  040%=      5-min Rain = 0
KMC5 260100Z 02009KT 19/05 A3012 RMK A01 T01930052  RH  040%=      5-min Rain = 0
KMC5 260101Z 02009KT 19/05 A3012 RMK A01 T01930052  RH  040%=      5-min Rain = 0
KMC5 260102Z 02009KT 19/05 A3012 RMK A01 T01920053  RH  040%=      5-min Rain = 0
KMC5 260103Z 02009KT 19/05 A3012 RMK A01 T01910052  RH  040%=      5-min Rain = 0
KMC5 260104Z 02010KT 19/05 A3012 RMK A01 T01910053  RH  040%=      5-min Rain = 0
KMC5 260105Z 02010KT 19/05 A3012 RMK A01 T01900052  RH  040%=      5-min Rain = 0
KMC5 260106Z 02010KT 19/05 A3012 RMK A01 T01900053  RH  041%=      5-min Rain = 0
KMC5 260107Z 02010KT 19/05 A3012 RMK A01 T01890053  RH  041%=      5-min Rain = 0
KMC5 260108Z 02010KT 19/05 A3012 RMK A01 T01890053  RH  041%=      5-min Rain = 0
KMC5 260109Z 02010KT 19/05 A3012 RMK A01 T01880053  RH  041%=      5-min Rain = 0
KMC5 260110Z 02010KT 19/05 A3012 RMK A01 T01880053  RH  041%=      5-min Rain = 0
KMC5 260111Z 02010KT 19/05 A3012 RMK A01 T01870053  RH  041%=      5-min Rain = 0
KMC5 260112Z 02010KT 19/05 A3012 RMK A01 T01860053  RH  042%=      5-min Rain = 0
KMC5 260113Z 02010KT 19/05 A3012 RMK A01 T01860053  RH  042%=      5-min Rain = 0
KMC5 260114Z 02010KT 19/05 A3012 RMK A01 T01860054  RH  042%=      5-min Rain = 0
KMC5 260115Z 02009KT 19/05 A3012 RMK A01 T01850054  RH  042%=      5-min Rain = 0
KMC5 260116Z 02009KT 18/06 A3012 RMK A01 T01830055  RH  043%=      5-min Rain = 0
KMC5 260117Z 02009KT 18/06 A3012 RMK A01 T01820055  RH  043%=      5-min Rain = 0
KMC5 260118Z 02008KT 18/06 A3012 RMK A01 T01810056  RH  044%=      5-min Rain = 0
KMC5 260119Z 02009KT 18/06 A3012 RMK A01 T01800055  RH  044%=      5-min Rain = 0
KMC5 260120Z 01009KT 18/06 A3012 RMK A01 T01790056  RH  044%=      5-min Rain = 0
KMC5 260121Z 01009KT 18/06 A3012 RMK A01 T01780056  RH  044%=      5-min Rain = 0
KMC5 260122Z 01009KT 18/06 A3012 RMK A01 T01780056  RH  045%=      5-min Rain = 0
KMC5 260123Z 01009KT 18/06 A3012 RMK A01 T01770056  RH  045%=      5-min Rain = 0
KMC5 260124Z 02009KT 18/06 A3012 RMK A01 T01770055  RH  045%=      5-min Rain = 0
KMC5 260125Z 01009KT 18/06 A3012 RMK A01 T01770055  RH  045%=      5-min Rain = 0
KMC5 260126Z 01009KT 18/06 A3012 RMK A01 T01770055  RH  045%=      5-min Rain = 0
KMC5 260127Z 02009KT 18/06 A3012 RMK A01 T01760055  RH  045%=      5-min Rain = 0
KMC5 260128Z 01010KT 18/06 A3012 RMK A01 T01760056  RH  045%=      5-min Rain = 0
KMC5 260129Z 01010KT 18/06 A3013 RMK A01 T01750056  RH  045%=      5-min Rain = 0
KMC5 260130Z 01009KT 18/06 A3013 RMK A01 T01750055  RH  045%=      5-min Rain = 0
KMC5 260131Z 01009KT 18/06 A3013 RMK A01 T01750056  RH  046%=      5-min Rain = 0
KMC5 260132Z 01009KT 17/06 A3013 RMK A01 T01730057  RH  046%=      5-min Rain = 0
KMC5 260133Z 01009KT 17/06 A3013 RMK A01 T01720057  RH  047%=      5-min Rain = 0
KMC5 260134Z 01009KT 17/06 A3013 RMK A01 T01710057  RH  047%=      5-min Rain = 0
KMC5 260135Z 01009KT 17/06 A3013 RMK A01 T01700058  RH  047%=      5-min Rain = 0
KMC5 260136Z 01009KT 17/06 A3013 RMK A01 T01700057  RH  048%=      5-min Rain = 0
KMC5 260137Z 01009KT 17/06 A3013 RMK A01 T01690057  RH  048%=      5-min Rain = 0
KMC5 260138Z 02010KT 17/06 A3013 RMK A01 T01690057  RH  048%=      5-min Rain = 0
KMC5 260139Z 01009KT 17/06 A3013 RMK A01 T01690056  RH  047%=      5-min Rain = 0
KMC5 260140Z 01008KT 17/06 A3013 RMK A01 T01690057  RH  048%=      5-min Rain = 0
KMC5 260141Z 02009KT 17/06 A3013 RMK A01 T01680057  RH  048%=      5-min Rain = 0
KMC5 260142Z 01008KT 17/06 A3013 RMK A01 T01670057  RH  048%=      5-min Rain = 0
KMC5 260143Z 01008KT 17/06 A3013 RMK A01 T01660058  RH  049%=      5-min Rain = 0
KMC5 260144Z 01009KT 16/06 A3013 RMK A01 T01640058  RH  049%=      5-min Rain = 0
KMC5 260145Z 02009KT 16/06 A3013 RMK A01 T01630058  RH  050%=      5-min Rain = 0
KMC5 260146Z 02009KT 16/06 A3013 RMK A01 T01630057  RH  049%=      5-min Rain = 0
KMC5 260147Z 02009KT 16/06 A3013 RMK A01 T01630057  RH  049%=      5-min Rain = 0
KMC5 260148Z 02009KT 16/06 A3014 RMK A01 T01630056  RH  049%=      5-min Rain = 0
KMC5 260149Z 02009KT 16/06 A3014 RMK A01 T01640057  RH  049%=      5-min Rain = 0
KMC5 260150Z 02009KT 16/06 A3014 RMK A01 T01630057  RH  049%=      5-min Rain = 0
KMC5 260151Z 02009KT 16/06 A3014 RMK A01 T01630058  RH  050%=      5-min Rain = 0
KMC5 260152Z 02009KT 16/06 A3014 RMK A01 T01620058  RH  050%=      5-min Rain = 0
KMC5 260153Z 01008KT 16/06 A3014 RMK A01 T01610058  RH  050%=      5-min Rain = 0
KMC5 260154Z 01009KT 16/06 A3014 RMK A01 T01600058  RH  051%=      5-min Rain = 0
KMC5 260155Z 01009KT 16/06 A3014 RMK A01 T01590058  RH  051%=      5-min Rain = 0
KMC5 260156Z 02009KT 16/06 A3014 RMK A01 T01590058  RH  051%=      5-min Rain = 0
KMC5 260157Z 01009KT 16/06 A3014 RMK A01 T01590058  RH  051%=      5-min Rain = 0
KMC5 260158Z 01009KT 16/06 A3014 RMK A01 T01600057  RH  051%=      5-min Rain = 0
KMC5 260159Z 01009KT 16/06 A3014 RMK A01 T01600057  RH  050%=      5-min Rain = 0
KMC5 260200Z 01010KT 16/06 A3014 RMK A01 T01610057  RH  050%=      5-min Rain = 0
KMC5 260201Z 01009KT 16/06 A3014 RMK A01 T01610057  RH  050%=      5-min Rain = 0
KMC5 260202Z 01009KT 16/06 A3015 RMK A01 T01610058  RH  050%=      5-min Rain = 0
KMC5 260203Z 01009KT 16/06 A3015 RMK A01 T01600059  RH  051%=      5-min Rain = 0
KMC5 260204Z 01010KT 16/06 A3015 RMK A01 T01580058  RH  051%=      5-min Rain = 0
KMC5 260205Z 01010KT 16/06 A3015 RMK A01 T01580058  RH  052%=      5-min Rain = 0
KMC5 260206Z 01010KT 16/06 A3015 RMK A01 T01570058  RH  052%=      5-min Rain = 0
KMC5 260207Z 01010KT 16/06 A3015 RMK A01 T01560058  RH  052%=      5-min Rain = 0
KMC5 260208Z 01010KT 16/06 A3015 RMK A01 T01560059  RH  052%=      5-min Rain = 0
KMC5 260209Z 01010KT 16/06 A3015 RMK A01 T01550059  RH  052%=      5-min Rain = 0
KMC5 260210Z 01009KT 16/06 A3015 RMK A01 T01550059  RH  052%=      5-min Rain = 0
KMC5 260211Z 01010KT 16/06 A3015 RMK A01 T01550059  RH  053%=      5-min Rain = 0
KMC5 260212Z 02010KT 16/06 A3015 RMK A01 T01550058  RH  052%=      5-min Rain = 0
KMC5 260213Z 02010KT 16/06 A3015 RMK A01 T01560057  RH  052%=      5-min Rain = 0
KMC5 260214Z 01010KT 16/06 A3015 RMK A01 T01560057  RH  052%=      5-min Rain = 0
KMC5 260215Z 01010KT 16/06 A3015 RMK A01 T01560058  RH  052%=      5-min Rain = 0
KMC5 260216Z 01010KT 16/06 A3015 RMK A01 T01550059  RH  053%=      5-min Rain = 0
KMC5 260217Z 02011KT 15/06 A3015 RMK A01 T01540058  RH  053%=      5-min Rain = 0
KMC5 260218Z 02011KT 15/06 A3015 RMK A01 T01530058  RH  053%=      5-min Rain = 0
KMC5 260219Z 02012KT 15/06 A3015 RMK A01 T01530057  RH  053%=      5-min Rain = 0
KMC5 260220Z 01012KT 15/06 A3015 RMK A01 T01540056  RH  052%=      5-min Rain = 0
KMC5 260221Z 01012KT 15/06 A3015 RMK A01 T01540056  RH  052%=      5-min Rain = 0
KMC5 260222Z 01013KT 15/06 A3015 RMK A01 T01540056  RH  052%=      5-min Rain = 0
KMC5 260223Z 01013KT 15/06 A3015 RMK A01 T01540056  RH  052%=      5-min Rain = 0
KMC5 260224Z 01013KT 15/06 A3015 RMK A01 T01540057  RH  052%=      5-min Rain = 0
KMC5 260225Z 01014KT 15/06 A3015 RMK A01 T01540056  RH  052%=      5-min Rain = 0
KMC5 260226Z 01014KT 15/06 A3015 RMK A01 T01540056  RH  052%=      5-min Rain = 0
KMC5 260227Z 02014KT 15/06 A3015 RMK A01 T01540056  RH  052%=      5-min Rain = 0
KMC5 260228Z 01014KT 16/06 A3015 RMK A01 T01550056  RH  052%=      5-min Rain = 0
KMC5 260229Z 02014KT 16/06 A3015 RMK A01 T01550056  RH  052%=      5-min Rain = 0
KMC5 260230Z 01014KT 16/06 A3015 RMK A01 T01550056  RH  051%=      5-min Rain = 0
KMC5 260231Z 02014KT 16/06 A3015 RMK A01 T01560056  RH  051%=      5-min Rain = 0
KMC5 260232Z 02014KT 16/06 A3015 RMK A01 T01560056  RH  051%=      5-min Rain = 0
KMC5 260233Z 02013KT 16/06 A3015 RMK A01 T01560056  RH  052%=      5-min Rain = 0
KMC5 260234Z 02013KT 16/06 A3015 RMK A01 T01560056  RH  051%=      5-min Rain = 0
KMC5 260235Z 02012KT 16/06 A3015 RMK A01 T01560055  RH  051%=      5-min Rain = 0
KMC5 260236Z 02012KT 16/06 A3015 RMK A01 T01560055  RH  051%=      5-min Rain = 0
KMC5 260237Z 02012KT 16/06 A3016 RMK A01 T01560055  RH  051%=      5-min Rain = 0
KMC5 260238Z 01012KT 16/05 A3016 RMK A01 T01560054  RH  051%=      5-min Rain = 0
KMC5 260239Z 02012KT 16/05 A3016 RMK A01 T01570054  RH  051%=      5-min Rain = 0
KMC5 260240Z 01011KT 16/05 A3016 RMK A01 T01570054  RH  050%=      5-min Rain = 0
KMC5 260241Z 01011KT 16/05 A3016 RMK A01 T01570054  RH  051%=      5-min Rain = 0
KMC5 260242Z 01010KT 16/06 A3016 RMK A01 T01570055  RH  051%=      5-min Rain = 0
KMC5 260243Z 01009KT 16/06 A3016 RMK A01 T01560055  RH  051%=      5-min Rain = 0
KMC5 260244Z 01010KT 16/06 A3016 RMK A01 T01550056  RH  052%=      5-min Rain = 0
KMC5 260245Z 01009KT 15/06 A3017 RMK A01 T01540056  RH  052%=      5-min Rain = 0
KMC5 260246Z 01009KT 15/06 A3017 RMK A01 T01530056  RH  052%=      5-min Rain = 0
KMC5 260247Z 01008KT 15/06 A3017 RMK A01 T01520057  RH  053%=      5-min Rain = 0
KMC5 260248Z 01008KT 15/06 A3017 RMK A01 T01510056  RH  053%=      5-min Rain = 0
KMC5 260249Z 01008KT 15/06 A3017 RMK A01 T01500056  RH  054%=      5-min Rain = 0
KMC5 260250Z 01008KT 15/06 A3017 RMK A01 T01490056  RH  054%=      5-min Rain = 0
KMC5 260251Z 01008KT 15/06 A3017 RMK A01 T01480056  RH  054%=      5-min Rain = 0
KMC5 260252Z 01008KT 15/06 A3017 RMK A01 T01480056  RH  054%=      5-min Rain = 0
KMC5 260253Z 01007KT 15/06 A3017 RMK A01 T01480056  RH  054%=      5-min Rain = 0
KMC5 260254Z 01007KT 15/06 A3017 RMK A01 T01470055  RH  054%=      5-min Rain = 0
KMC5 260255Z 01007KT 15/06 A3017 RMK A01 T01470055  RH  054%=      5-min Rain = 0
KMC5 260256Z 02007KT 15/06 A3017 RMK A01 T01460055  RH  054%=      5-min Rain = 0
KMC5 260257Z 02008KT 15/06 A3017 RMK A01 T01460055  RH  054%=      5-min Rain = 0
KMC5 260258Z 02008KT 15/06 A3017 RMK A01 T01460055  RH  054%=      5-min Rain = 0
KMC5 260259Z 01008KT 15/05 A3017 RMK A01 T01460054  RH  054%=      5-min Rain = 0
KMC5 260300Z 01008KT 15/06 A3017 RMK A01 T01450055  RH  054%=      5-min Rain = 0
KMC5 260301Z 01008KT 15/06 A3017 RMK A01 T01450055  RH  055%=      5-min Rain = 0
KMC5 260302Z 01008KT 14/06 A3017 RMK A01 T01440055  RH  055%=      5-min Rain = 0
KMC5 260303Z 01008KT 14/06 A3017 RMK A01 T01430055  RH  055%=      5-min Rain = 0
KMC5 260304Z 01009KT 14/06 A3017 RMK A01 T01420055  RH  056%=      5-min Rain = 0
KMC5 260305Z 01009KT 14/06 A3017 RMK A01 T01420055  RH  056%=      5-min Rain = 0
KMC5 260306Z 01009KT 14/06 A3017 RMK A01 T01420055  RH  056%=      5-min Rain = 0
KMC5 260307Z 01009KT 14/06 A3017 RMK A01 T01420055  RH  056%=      5-min Rain = 0
KMC5 260308Z 01010KT 14/06 A3017 RMK A01 T01420055  RH  056%=      5-min Rain = 0
KMC5 260309Z 01010KT 14/06 A3017 RMK A01 T01420055  RH  056%=      5-min Rain = 0
KMC5 260310Z 01010KT 14/06 A3017 RMK A01 T01420055  RH  056%=      5-min Rain = 0
KMC5 260311Z 01011KT 14/05 A3017 RMK A01 T01430054  RH  055%=      5-min Rain = 0
KMC5 260312Z 01010KT 14/05 A3017 RMK A01 T01440054  RH  055%=      5-min Rain = 0
KMC5 260313Z 01011KT 14/06 A3017 RMK A01 T01440055  RH  055%=      5-min Rain = 0
KMC5 260314Z 01011KT 14/06 A3017 RMK A01 T01430055  RH  055%=      5-min Rain = 0
KMC5 260315Z 01010KT 14/06 A3017 RMK A01 T01420055  RH  056%=      5-min Rain = 0
KMC5 260316Z 01010KT 14/06 A3017 RMK A01 T01410055  RH  056%=      5-min Rain = 0
KMC5 260317Z 01010KT 14/06 A3017 RMK A01 T01400055  RH  056%=      5-min Rain = 0
KMC5 260318Z 01010KT 14/06 A3017 RMK A01 T01400055  RH  057%=      5-min Rain = 0
KMC5 260319Z 01009KT 14/06 A3018 RMK A01 T01390055  RH  057%=      5-min Rain = 0
KMC5 260320Z 01009KT 14/06 A3018 RMK A01 T01390055  RH  057%=      5-min Rain = 0
KMC5 260321Z 01009KT 14/06 A3018 RMK A01 T01390055  RH  057%=      5-min Rain = 0
KMC5 260322Z 01009KT 14/05 A3018 RMK A01 T01390054  RH  057%=      5-min Rain = 0
KMC5 260323Z 01008KT 14/05 A3018 RMK A01 T01390054  RH  057%=      5-min Rain = 0
KMC5 260324Z 01008KT 14/05 A3018 RMK A01 T01390054  RH  056%=      5-min Rain = 0
KMC5 260325Z 01008KT 14/05 A3018 RMK A01 T01390053  RH  056%=      5-min Rain = 0
KMC5 260326Z 01007KT 14/05 A3018 RMK A01 T01390053  RH  056%=      5-min Rain = 0
KMC5 260327Z 01007KT 14/05 A3018 RMK A01 T01400053  RH  056%=      5-min Rain = 0
KMC5 260328Z 01007KT 14/05 A3018 RMK A01 T01400052  RH  055%=      5-min Rain = 0
KMC5 260329Z 01006KT 14/05 A3018 RMK A01 T01400053  RH  055%=      5-min Rain = 0
KMC5 260330Z 01006KT 14/05 A3018 RMK A01 T01400052  RH  055%=      5-min Rain = 0
KMC5 260331Z 01006KT 14/05 A3019 RMK A01 T01400052  RH  055%=      5-min Rain = 0
KMC5 260332Z 01006KT 14/05 A3019 RMK A01 T01400052  RH  055%=      5-min Rain = 0
KMC5 260333Z 01006KT 14/05 A3019 RMK A01 T01400052  RH  055%=      5-min Rain = 0
KMC5 260334Z 01006KT 14/05 A3019 RMK A01 T01410052  RH  055%=      5-min Rain = 0
KMC5 260335Z 01006KT 14/05 A3019 RMK A01 T01400051  RH  055%=      5-min Rain = 0
KMC5 260336Z 01006KT 14/05 A3019 RMK A01 T01400051  RH  055%=      5-min Rain = 0
KMC5 260337Z 01007KT 14/05 A3019 RMK A01 T01400051  RH  055%=      5-min Rain = 0
KMC5 260338Z 01007KT 14/05 A3019 RMK A01 T01400050  RH  054%=      5-min Rain = 0
KMC5 260339Z 01007KT 14/05 A3019 RMK A01 T01410050  RH  054%=      5-min Rain = 0
KMC5 260340Z 01007KT 14/05 A3019 RMK A01 T01410050  RH  054%=      5-min Rain = 0
KMC5 260341Z 01008KT 14/05 A3019 RMK A01 T01420049  RH  054%=      5-min Rain = 0
KMC5 260342Z 01008KT 14/05 A3019 RMK A01 T01430049  RH  053%=      5-min Rain = 0
KMC5 260343Z 01008KT 14/05 A3019 RMK A01 T01420049  RH  053%=      5-min Rain = 0
KMC5 260344Z 01008KT 14/05 A3019 RMK A01 T01430049  RH  053%=      5-min Rain = 0
KMC5 260345Z 01008KT 14/05 A3019 RMK A01 T01430049  RH  053%=      5-min Rain = 0
KMC5 260346Z 01008KT 14/05 A3019 RMK A01 T01430048  RH  053%=      5-min Rain = 0
KMC5 260347Z 01009KT 14/05 A3019 RMK A01 T01430048  RH  053%=      5-min Rain = 0
KMC5 260348Z 01009KT 14/05 A3019 RMK A01 T01420049  RH  053%=      5-min Rain = 0
KMC5 260349Z 01009KT 14/05 A3019 RMK A01 T01420048  RH  053%=      5-min Rain = 0
KMC5 260350Z 01009KT 14/05 A3019 RMK A01 T01420047  RH  053%=      5-min Rain = 0
KMC5 260351Z 01009KT 14/05 A3019 RMK A01 T01420048  RH  053%=      5-min Rain = 0
KMC5 260352Z 02009KT 14/05 A3019 RMK A01 T01420048  RH  053%=      5-min Rain = 0
KMC5 260353Z 02009KT 14/05 A3019 RMK A01 T01410047  RH  053%=      5-min Rain = 0
KMC5 260354Z 02009KT 14/05 A3019 RMK A01 T01420047  RH  053%=      5-min Rain = 0
KMC5 260355Z 01009KT 14/05 A3019 RMK A01 T01410048  RH  053%=      5-min Rain = 0
KMC5 260356Z 01009KT 14/05 A3019 RMK A01 T01400048  RH  054%=      5-min Rain = 0
KMC5 260357Z 01009KT 14/05 A3019 RMK A01 T01400048  RH  054%=      5-min Rain = 0
KMC5 260358Z 01008KT 14/05 A3019 RMK A01 T01390048  RH  054%=      5-min Rain = 0
KMC5 260359Z 01008KT 14/05 A3019 RMK A01 T01400048  RH  054%=      5-min Rain = 0
KMC5 260400Z 01008KT 14/05 A3019 RMK A01 T01390047  RH  054%=      5-min Rain = 0
KMC5 260401Z 01008KT 14/05 A3019 RMK A01 T01390047  RH  054%=      5-min Rain = 0
KMC5 260402Z 01008KT 14/05 A3019 RMK A01 T01400047  RH  053%=      5-min Rain = 0
KMC5 260403Z 01008KT 14/05 A3019 RMK A01 T01400046  RH  053%=      5-min Rain = 0
KMC5 260404Z 01008KT 14/05 A3019 RMK A01 T01400047  RH  053%=      5-min Rain = 0
KMC5 260405Z 01008KT 14/05 A3019 RMK A01 T01400046  RH  053%=      5-min Rain = 0
KMC5 260406Z 01008KT 14/05 A3019 RMK A01 T01400046  RH  053%=      5-min Rain = 0
KMC5 260407Z 01008KT 14/05 A3019 RMK A01 T01400046  RH  053%=      5-min Rain = 0
KMC5 260408Z 01008KT 14/05 A3019 RMK A01 T01400046  RH  053%=      5-min Rain = 0
KMC5 260409Z 01008KT 14/05 A3019 RMK A01 T01400046  RH  053%=      5-min Rain = 0
KMC5 260410Z 01008KT 14/05 A3019 RMK A01 T01390046  RH  053%=      5-min Rain = 0
KMC5 260411Z 01007KT 14/05 A3019 RMK A01 T01390046  RH  054%=      5-min Rain = 0
KMC5 260412Z 02006KT 14/05 A3019 RMK A01 T01380047  RH  054%=      5-min Rain = 0
KMC5 260413Z 04004KT 14/05 A302 RMK A01 T01360048  RH  055%=      5-min Rain = 0
KMC5 260414Z 02005KT 13/05 A3019 RMK A01 T01320047  RH  056%=      5-min Rain = 0
KMC5 260415Z 04005KT 13/05 A3019 RMK A01 T01320045  RH  056%=      5-min Rain = 0
KMC5 260416Z 05004KT 13/05 A3019 RMK A01 T01330047  RH  056%=      5-min Rain = 0
KMC5 260417Z 04005KT 13/05 A3019 RMK A01 T01320047  RH  056%=      5-min Rain = 0
KMC5 260418Z 04004KT 13/05 A3019 RMK A01 T01310047  RH  057%=      5-min Rain = 0
KMC5 260419Z 03005KT 13/05 A302 RMK A01 T01310047  RH  057%=      5-min Rain = 0
KMC5 260420Z 03004KT 13/05 A302 RMK A01 T01310047  RH  057%=      5-min Rain = 0
KMC5 260421Z 03005KT 13/05 A302 RMK A01 T01310047  RH  057%=      5-min Rain = 0
KMC5 260422Z 03005KT 13/05 A302 RMK A01 T01310046  RH  056%=      5-min Rain = 0
KMC5 260423Z 03005KT 13/05 A302 RMK A01 T01310046  RH  056%=      5-min Rain = 0
KMC5 260424Z 03004KT 13/05 A302 RMK A01 T01320045  RH  056%=      5-min Rain = 0
KMC5 260425Z 03004KT 13/05 A302 RMK A01 T01330045  RH  055%=      5-min Rain = 0
KMC5 260426Z 02004KT 13/05 A302 RMK A01 T01330045  RH  055%=      5-min Rain = 0
KMC5 260427Z 03004KT 13/05 A302 RMK A01 T01330046  RH  055%=      5-min Rain = 0
KMC5 260428Z 03004KT 13/05 A302 RMK A01 T01330046  RH  055%=      5-min Rain = 0
KMC5 260429Z 02004KT 13/05 A302 RMK A01 T01330045  RH  055%=      5-min Rain = 0
KMC5 260430Z 02004KT 13/04 A302 RMK A01 T01340044  RH  055%=      5-min Rain = 0
KMC5 260431Z 02004KT 13/04 A302 RMK A01 T01340044  RH  054%=      5-min Rain = 0
KMC5 260432Z 02004KT 13/04 A302 RMK A01 T01340044  RH  054%=      5-min Rain = 0
KMC5 260433Z 02004KT 13/04 A302 RMK A01 T01340044  RH  054%=      5-min Rain = 0
KMC5 260434Z 02004KT 14/04 A302 RMK A01 T01350044  RH  054%=      5-min Rain = 0
KMC5 260435Z 01004KT 14/04 A302 RMK A01 T01350044  RH  054%=      5-min Rain = 0
KMC5 260436Z 02004KT 13/04 A302 RMK A01 T01340044  RH  054%=      5-min Rain = 0
KMC5 260437Z 02005KT 13/04 A302 RMK A01 T01340043  RH  054%=      5-min Rain = 0
KMC5 260438Z 01005KT 14/04 A302 RMK A01 T01350043  RH  054%=      5-min Rain = 0
KMC5 260439Z 02005KT 14/04 A302 RMK A01 T01350043  RH  054%=      5-min Rain = 0
KMC5 260440Z 02005KT 14/04 A302 RMK A01 T01350043  RH  054%=      5-min Rain = 0
KMC5 260441Z 02005KT 14/04 A302 RMK A01 T01350043  RH  054%=      5-min Rain = 0
KMC5 260442Z 02006KT 14/04 A302 RMK A01 T01350043  RH  054%=      5-min Rain = 0
KMC5 260443Z 02006KT 14/04 A302 RMK A01 T01350042  RH  053%=      5-min Rain = 0
KMC5 260444Z 02006KT 14/04 A302 RMK A01 T01360041  RH  053%=      5-min Rain = 0
KMC5 260445Z 02006KT 14/04 A302 RMK A01 T01370041  RH  052%=      5-min Rain = 0
KMC5 260446Z 02007KT 14/04 A302 RMK A01 T01370042  RH  052%=      5-min Rain = 0
KMC5 260447Z 02006KT 14/04 A302 RMK A01 T01370042  RH  053%=      5-min Rain = 0
KMC5 260448Z 02006KT 14/04 A302 RMK A01 T01370041  RH  052%=      5-min Rain = 0
KMC5 260449Z 03006KT 14/04 A302 RMK A01 T01370042  RH  053%=      5-min Rain = 0
KMC5 260450Z 02005KT 14/04 A302 RMK A01 T01370041  RH  052%=      5-min Rain = 0
KMC5 260451Z 02005KT 14/04 A302 RMK A01 T01360041  RH  052%=      5-min Rain = 0
KMC5 260452Z 02005KT 14/04 A302 RMK A01 T01360040  RH  052%=      5-min Rain = 0
KMC5 260453Z 02005KT 14/04 A302 RMK A01 T01360040  RH  052%=      5-min Rain = 0
KMC5 260454Z 02005KT 14/04 A302 RMK A01 T01360039  RH  052%=      5-min Rain = 0
KMC5 260455Z 02005KT 14/04 A302 RMK A01 T01370040  RH  052%=      5-min Rain = 0
KMC5 260456Z 02005KT 14/04 A302 RMK A01 T01370040  RH  052%=      5-min Rain = 0
KMC5 260457Z 02005KT 14/04 A302 RMK A01 T01370040  RH  052%=      5-min Rain = 0
KMC5 260458Z 02005KT 14/04 A302 RMK A01 T01370040  RH  052%=      5-min Rain = 0
KMC5 260459Z 01004KT 14/04 A302 RMK A01 T01360039  RH  052%=      5-min Rain = 0

Page generated in 0.1902 seconds.